<?xml version="1.0" encoding="UTF-8" standalone="no" ?>
<gpx xmlns="http://www.topografix.com/GPX/1/1" xmlns:xsi="http://www.w3.org/2001/XMLSchema-instance" xsi:schemaLocation="http://www.topografix.com/GPX/1/1 http://www.topografix.com/GPX/1/1/gpx.xsd" version="1.1" creator="VisuGPX - https://www.visugpx.com">
  <metadata>
    <name>Autour de Sagnes et Goudoulet</name>
    <desc><![CDATA[Belle balade autour de Sagnes et Goudoulet.]]></desc>
  </metadata>
  <trk>
    <name><![CDATA[2015-10-10 15:27:05]]></name>
    <trkseg>
      <trkpt lat="44.79008" lon="4.2252">
        <ele>1249.37</ele>
        <time>2015-10-10T07:29:18Z</time>
      </trkpt>
      <trkpt lat="44.79008" lon="4.2252">
        <ele>1249.37</ele>
        <time>2015-10-10T07:29:19Z</time>
      </trkpt>
      <trkpt lat="44.79007" lon="4.2252">
        <ele>1242.64</ele>
        <time>2015-10-10T07:29:22Z</time>
      </trkpt>
      <trkpt lat="44.79007" lon="4.2252">
        <ele>1242.64</ele>
        <time>2015-10-10T07:29:23Z</time>
      </trkpt>
      <trkpt lat="44.79008" lon="4.22522">
        <ele>1243.12</ele>
        <time>2015-10-10T07:29:55Z</time>
      </trkpt>
      <trkpt lat="44.79008" lon="4.22523">
        <ele>1242.64</ele>
        <time>2015-10-10T07:30:18Z</time>
      </trkpt>
      <trkpt lat="44.79008" lon="4.22524">
        <ele>1242.64</ele>
        <time>2015-10-10T07:30:42Z</time>
      </trkpt>
      <trkpt lat="44.79007" lon="4.22522">
        <ele>1242.64</ele>
        <time>2015-10-10T07:30:53Z</time>
      </trkpt>
      <trkpt lat="44.79001" lon="4.22523">
        <ele>1242.64</ele>
        <time>2015-10-10T07:31:05Z</time>
      </trkpt>
      <trkpt lat="44.79" lon="4.22525">
        <ele>1241.2</ele>
        <time>2015-10-10T07:31:21Z</time>
      </trkpt>
      <trkpt lat="44.78999" lon="4.22524">
        <ele>1241.2</ele>
        <time>2015-10-10T07:31:38Z</time>
      </trkpt>
      <trkpt lat="44.78999" lon="4.22522">
        <ele>1241.2</ele>
        <time>2015-10-10T07:31:55Z</time>
      </trkpt>
      <trkpt lat="44.78992" lon="4.22511">
        <ele>1239.28</ele>
        <time>2015-10-10T07:32:15Z</time>
      </trkpt>
      <trkpt lat="44.78983" lon="4.22501">
        <ele>1236.87</ele>
        <time>2015-10-10T07:32:31Z</time>
      </trkpt>
      <trkpt lat="44.78977" lon="4.22488">
        <ele>1234.47</ele>
        <time>2015-10-10T07:32:49Z</time>
      </trkpt>
      <trkpt lat="44.78973" lon="4.22469">
        <ele>1232.55</ele>
        <time>2015-10-10T07:33:08Z</time>
      </trkpt>
      <trkpt lat="44.78978" lon="4.22457">
        <ele>1230.14</ele>
        <time>2015-10-10T07:33:25Z</time>
      </trkpt>
      <trkpt lat="44.78993" lon="4.22447">
        <ele>1228.22</ele>
        <time>2015-10-10T07:33:46Z</time>
      </trkpt>
      <trkpt lat="44.79005" lon="4.22441">
        <ele>1226.3</ele>
        <time>2015-10-10T07:34:02Z</time>
      </trkpt>
      <trkpt lat="44.79017" lon="4.22432">
        <ele>1224.86</ele>
        <time>2015-10-10T07:34:18Z</time>
      </trkpt>
      <trkpt lat="44.79017" lon="4.22407">
        <ele>1222.93</ele>
        <time>2015-10-10T07:34:36Z</time>
      </trkpt>
      <trkpt lat="44.79017" lon="4.22405">
        <ele>1222.93</ele>
        <time>2015-10-10T07:34:37Z</time>
      </trkpt>
      <trkpt lat="44.79015" lon="4.22397">
        <ele>1222.45</ele>
        <time>2015-10-10T07:34:51Z</time>
      </trkpt>
      <trkpt lat="44.79013" lon="4.22386">
        <ele>1222.45</ele>
        <time>2015-10-10T07:35:07Z</time>
      </trkpt>
      <trkpt lat="44.79005" lon="4.2237">
        <ele>1221.49</ele>
        <time>2015-10-10T07:35:23Z</time>
      </trkpt>
      <trkpt lat="44.79005" lon="4.22367">
        <ele>1221.49</ele>
        <time>2015-10-10T07:35:39Z</time>
      </trkpt>
      <trkpt lat="44.79004" lon="4.22364">
        <ele>1221.97</ele>
        <time>2015-10-10T07:35:56Z</time>
      </trkpt>
      <trkpt lat="44.79009" lon="4.22345">
        <ele>1221.97</ele>
        <time>2015-10-10T07:36:16Z</time>
      </trkpt>
      <trkpt lat="44.79004" lon="4.2233">
        <ele>1221.97</ele>
        <time>2015-10-10T07:36:33Z</time>
      </trkpt>
      <trkpt lat="44.78994" lon="4.22326">
        <ele>1223.42</ele>
        <time>2015-10-10T07:36:54Z</time>
      </trkpt>
      <trkpt lat="44.78984" lon="4.22317">
        <ele>1224.38</ele>
        <time>2015-10-10T07:37:19Z</time>
      </trkpt>
      <trkpt lat="44.78964" lon="4.22297">
        <ele>1225.34</ele>
        <time>2015-10-10T07:37:43Z</time>
      </trkpt>
      <trkpt lat="44.78946" lon="4.2228">
        <ele>1225.34</ele>
        <time>2015-10-10T07:38:06Z</time>
      </trkpt>
      <trkpt lat="44.78932" lon="4.22268">
        <ele>1225.82</ele>
        <time>2015-10-10T07:38:26Z</time>
      </trkpt>
      <trkpt lat="44.7892" lon="4.22258">
        <ele>1229.18</ele>
        <time>2015-10-10T07:38:50Z</time>
      </trkpt>
      <trkpt lat="44.78908" lon="4.22252">
        <ele>1231.59</ele>
        <time>2015-10-10T07:39:12Z</time>
      </trkpt>
      <trkpt lat="44.78882" lon="4.2224">
        <ele>1234.95</ele>
        <time>2015-10-10T07:39:39Z</time>
      </trkpt>
      <trkpt lat="44.7887" lon="4.22228">
        <ele>1237.83</ele>
        <time>2015-10-10T07:40:02Z</time>
      </trkpt>
      <trkpt lat="44.78857" lon="4.22215">
        <ele>1241.2</ele>
        <time>2015-10-10T07:40:26Z</time>
      </trkpt>
      <trkpt lat="44.78847" lon="4.22212">
        <ele>1243.12</ele>
        <time>2015-10-10T07:40:47Z</time>
      </trkpt>
      <trkpt lat="44.78835" lon="4.22211">
        <ele>1244.08</ele>
        <time>2015-10-10T07:40:56Z</time>
      </trkpt>
      <trkpt lat="44.78826" lon="4.22194">
        <ele>1246.01</ele>
        <time>2015-10-10T07:41:19Z</time>
      </trkpt>
      <trkpt lat="44.78823" lon="4.22183">
        <ele>1246.49</ele>
        <time>2015-10-10T07:41:37Z</time>
      </trkpt>
      <trkpt lat="44.78822" lon="4.22176">
        <ele>1247.45</ele>
        <time>2015-10-10T07:41:57Z</time>
      </trkpt>
      <trkpt lat="44.78816" lon="4.22167">
        <ele>1247.45</ele>
        <time>2015-10-10T07:42:12Z</time>
      </trkpt>
      <trkpt lat="44.78811" lon="4.22153">
        <ele>1247.45</ele>
        <time>2015-10-10T07:42:28Z</time>
      </trkpt>
      <trkpt lat="44.78811" lon="4.22154">
        <ele>1247.93</ele>
        <time>2015-10-10T07:42:44Z</time>
      </trkpt>
      <trkpt lat="44.78809" lon="4.22153">
        <ele>1247.93</ele>
        <time>2015-10-10T07:43:01Z</time>
      </trkpt>
      <trkpt lat="44.78808" lon="4.22149">
        <ele>1247.93</ele>
        <time>2015-10-10T07:43:06Z</time>
      </trkpt>
      <trkpt lat="44.78798" lon="4.22128">
        <ele>1247.93</ele>
        <time>2015-10-10T07:43:24Z</time>
      </trkpt>
      <trkpt lat="44.78788" lon="4.22113">
        <ele>1247.93</ele>
        <time>2015-10-10T07:43:40Z</time>
      </trkpt>
      <trkpt lat="44.78779" lon="4.22098">
        <ele>1248.41</ele>
        <time>2015-10-10T07:43:55Z</time>
      </trkpt>
      <trkpt lat="44.78769" lon="4.22082">
        <ele>1249.37</ele>
        <time>2015-10-10T07:44:11Z</time>
      </trkpt>
      <trkpt lat="44.78763" lon="4.2207">
        <ele>1250.33</ele>
        <time>2015-10-10T07:44:23Z</time>
      </trkpt>
      <trkpt lat="44.78759" lon="4.22062">
        <ele>1250.33</ele>
        <time>2015-10-10T07:44:31Z</time>
      </trkpt>
      <trkpt lat="44.78748" lon="4.22039">
        <ele>1250.33</ele>
        <time>2015-10-10T07:44:50Z</time>
      </trkpt>
      <trkpt lat="44.78741" lon="4.22023">
        <ele>1248.89</ele>
        <time>2015-10-10T07:45:02Z</time>
      </trkpt>
      <trkpt lat="44.7873" lon="4.22006">
        <ele>1248.41</ele>
        <time>2015-10-10T07:45:19Z</time>
      </trkpt>
      <trkpt lat="44.78721" lon="4.21995">
        <ele>1249.37</ele>
        <time>2015-10-10T07:45:32Z</time>
      </trkpt>
      <trkpt lat="44.78709" lon="4.21978">
        <ele>1250.33</ele>
        <time>2015-10-10T07:45:50Z</time>
      </trkpt>
      <trkpt lat="44.78704" lon="4.21964">
        <ele>1251.29</ele>
        <time>2015-10-10T07:46:04Z</time>
      </trkpt>
      <trkpt lat="44.78696" lon="4.21949">
        <ele>1252.25</ele>
        <time>2015-10-10T07:46:21Z</time>
      </trkpt>
      <trkpt lat="44.78683" lon="4.21942">
        <ele>1254.66</ele>
        <time>2015-10-10T07:46:38Z</time>
      </trkpt>
      <trkpt lat="44.78671" lon="4.21935">
        <ele>1254.66</ele>
        <time>2015-10-10T07:46:53Z</time>
      </trkpt>
      <trkpt lat="44.7866" lon="4.21928">
        <ele>1256.58</ele>
        <time>2015-10-10T07:47:07Z</time>
      </trkpt>
      <trkpt lat="44.78647" lon="4.2192">
        <ele>1258.02</ele>
        <time>2015-10-10T07:47:24Z</time>
      </trkpt>
      <trkpt lat="44.78634" lon="4.21912">
        <ele>1258.98</ele>
        <time>2015-10-10T07:47:42Z</time>
      </trkpt>
      <trkpt lat="44.78622" lon="4.21905">
        <ele>1260.91</ele>
        <time>2015-10-10T07:47:58Z</time>
      </trkpt>
      <trkpt lat="44.78621" lon="4.21889">
        <ele>1261.87</ele>
        <time>2015-10-10T07:48:14Z</time>
      </trkpt>
      <trkpt lat="44.78621" lon="4.21888">
        <ele>1262.83</ele>
        <time>2015-10-10T07:48:21Z</time>
      </trkpt>
      <trkpt lat="44.7862" lon="4.21888">
        <ele>1262.83</ele>
        <time>2015-10-10T07:48:48Z</time>
      </trkpt>
      <trkpt lat="44.78623" lon="4.21888">
        <ele>1261.39</ele>
        <time>2015-10-10T07:48:57Z</time>
      </trkpt>
      <trkpt lat="44.7863" lon="4.21887">
        <ele>1260.91</ele>
        <time>2015-10-10T07:49:12Z</time>
      </trkpt>
      <trkpt lat="44.78636" lon="4.21886">
        <ele>1260.43</ele>
        <time>2015-10-10T07:49:29Z</time>
      </trkpt>
      <trkpt lat="44.7865" lon="4.21887">
        <ele>1258.98</ele>
        <time>2015-10-10T07:49:47Z</time>
      </trkpt>
      <trkpt lat="44.78665" lon="4.21889">
        <ele>1258.02</ele>
        <time>2015-10-10T07:50:06Z</time>
      </trkpt>
      <trkpt lat="44.7867" lon="4.21889">
        <ele>1257.54</ele>
        <time>2015-10-10T07:50:12Z</time>
      </trkpt>
      <trkpt lat="44.78691" lon="4.21893">
        <ele>1256.1</ele>
        <time>2015-10-10T07:50:33Z</time>
      </trkpt>
      <trkpt lat="44.78709" lon="4.21903">
        <ele>1255.14</ele>
        <time>2015-10-10T07:50:52Z</time>
      </trkpt>
      <trkpt lat="44.78727" lon="4.21912">
        <ele>1253.7</ele>
        <time>2015-10-10T07:51:12Z</time>
      </trkpt>
      <trkpt lat="44.78744" lon="4.21919">
        <ele>1253.7</ele>
        <time>2015-10-10T07:51:29Z</time>
      </trkpt>
      <trkpt lat="44.7876" lon="4.21928">
        <ele>1253.22</ele>
        <time>2015-10-10T07:51:46Z</time>
      </trkpt>
      <trkpt lat="44.78772" lon="4.21949">
        <ele>1252.74</ele>
        <time>2015-10-10T07:52:05Z</time>
      </trkpt>
      <trkpt lat="44.78783" lon="4.21966">
        <ele>1252.74</ele>
        <time>2015-10-10T07:52:21Z</time>
      </trkpt>
      <trkpt lat="44.78797" lon="4.21983">
        <ele>1252.25</ele>
        <time>2015-10-10T07:52:41Z</time>
      </trkpt>
      <trkpt lat="44.78798" lon="4.21986">
        <ele>1252.25</ele>
        <time>2015-10-10T07:52:44Z</time>
      </trkpt>
      <trkpt lat="44.78802" lon="4.21992">
        <ele>1252.25</ele>
        <time>2015-10-10T07:52:59Z</time>
      </trkpt>
      <trkpt lat="44.78805" lon="4.21995">
        <ele>1252.25</ele>
        <time>2015-10-10T07:53:05Z</time>
      </trkpt>
      <trkpt lat="44.78809" lon="4.21999">
        <ele>1252.25</ele>
        <time>2015-10-10T07:53:10Z</time>
      </trkpt>
      <trkpt lat="44.78824" lon="4.22014">
        <ele>1251.77</ele>
        <time>2015-10-10T07:53:30Z</time>
      </trkpt>
      <trkpt lat="44.78836" lon="4.22022">
        <ele>1251.77</ele>
        <time>2015-10-10T07:53:46Z</time>
      </trkpt>
      <trkpt lat="44.78849" lon="4.22031">
        <ele>1251.77</ele>
        <time>2015-10-10T07:54:04Z</time>
      </trkpt>
      <trkpt lat="44.78865" lon="4.22041">
        <ele>1251.29</ele>
        <time>2015-10-10T07:54:23Z</time>
      </trkpt>
      <trkpt lat="44.78878" lon="4.22048">
        <ele>1252.74</ele>
        <time>2015-10-10T07:54:38Z</time>
      </trkpt>
      <trkpt lat="44.78895" lon="4.22052">
        <ele>1252.25</ele>
        <time>2015-10-10T07:54:56Z</time>
      </trkpt>
      <trkpt lat="44.78909" lon="4.22056">
        <ele>1252.74</ele>
        <time>2015-10-10T07:55:15Z</time>
      </trkpt>
      <trkpt lat="44.78926" lon="4.22055">
        <ele>1253.7</ele>
        <time>2015-10-10T07:55:34Z</time>
      </trkpt>
      <trkpt lat="44.78945" lon="4.22055">
        <ele>1254.18</ele>
        <time>2015-10-10T07:55:53Z</time>
      </trkpt>
      <trkpt lat="44.78964" lon="4.22052">
        <ele>1254.66</ele>
        <time>2015-10-10T07:56:12Z</time>
      </trkpt>
      <trkpt lat="44.78967" lon="4.22052">
        <ele>1254.18</ele>
        <time>2015-10-10T07:56:25Z</time>
      </trkpt>
      <trkpt lat="44.78967" lon="4.22051">
        <ele>1255.62</ele>
        <time>2015-10-10T07:56:28Z</time>
      </trkpt>
      <trkpt lat="44.7897" lon="4.22051">
        <ele>1253.7</ele>
        <time>2015-10-10T07:56:46Z</time>
      </trkpt>
      <trkpt lat="44.78971" lon="4.22054">
        <ele>1253.7</ele>
        <time>2015-10-10T07:57:03Z</time>
      </trkpt>
      <trkpt lat="44.78974" lon="4.22054">
        <ele>1253.7</ele>
        <time>2015-10-10T07:57:26Z</time>
      </trkpt>
      <trkpt lat="44.78974" lon="4.22053">
        <ele>1253.7</ele>
        <time>2015-10-10T07:57:50Z</time>
      </trkpt>
      <trkpt lat="44.78974" lon="4.22055">
        <ele>1253.22</ele>
        <time>2015-10-10T07:58:25Z</time>
      </trkpt>
      <trkpt lat="44.78976" lon="4.22054">
        <ele>1253.22</ele>
        <time>2015-10-10T07:58:44Z</time>
      </trkpt>
      <trkpt lat="44.78976" lon="4.22055">
        <ele>1253.22</ele>
        <time>2015-10-10T07:59:21Z</time>
      </trkpt>
      <trkpt lat="44.78981" lon="4.22054">
        <ele>1253.22</ele>
        <time>2015-10-10T07:59:44Z</time>
      </trkpt>
      <trkpt lat="44.78984" lon="4.22055">
        <ele>1253.22</ele>
        <time>2015-10-10T07:59:48Z</time>
      </trkpt>
      <trkpt lat="44.79006" lon="4.22053">
        <ele>1252.74</ele>
        <time>2015-10-10T08:00:09Z</time>
      </trkpt>
      <trkpt lat="44.79024" lon="4.2205">
        <ele>1251.77</ele>
        <time>2015-10-10T08:00:27Z</time>
      </trkpt>
      <trkpt lat="44.79041" lon="4.22048">
        <ele>1253.22</ele>
        <time>2015-10-10T08:00:44Z</time>
      </trkpt>
      <trkpt lat="44.7906" lon="4.22047">
        <ele>1252.74</ele>
        <time>2015-10-10T08:01:03Z</time>
      </trkpt>
      <trkpt lat="44.79067" lon="4.22047">
        <ele>1252.74</ele>
        <time>2015-10-10T08:01:19Z</time>
      </trkpt>
      <trkpt lat="44.7907" lon="4.22045">
        <ele>1252.74</ele>
        <time>2015-10-10T08:01:26Z</time>
      </trkpt>
      <trkpt lat="44.79077" lon="4.22029">
        <ele>1251.77</ele>
        <time>2015-10-10T08:01:41Z</time>
      </trkpt>
      <trkpt lat="44.79087" lon="4.22012">
        <ele>1250.81</ele>
        <time>2015-10-10T08:01:59Z</time>
      </trkpt>
      <trkpt lat="44.7909" lon="4.22008">
        <ele>1250.33</ele>
        <time>2015-10-10T08:02:04Z</time>
      </trkpt>
      <trkpt lat="44.791" lon="4.21995">
        <ele>1248.89</ele>
        <time>2015-10-10T08:02:21Z</time>
      </trkpt>
      <trkpt lat="44.79113" lon="4.21985">
        <ele>1247.45</ele>
        <time>2015-10-10T08:02:40Z</time>
      </trkpt>
      <trkpt lat="44.79124" lon="4.21971">
        <ele>1246.49</ele>
        <time>2015-10-10T08:02:57Z</time>
      </trkpt>
      <trkpt lat="44.79133" lon="4.21957">
        <ele>1245.04</ele>
        <time>2015-10-10T08:03:13Z</time>
      </trkpt>
      <trkpt lat="44.79144" lon="4.21942">
        <ele>1244.56</ele>
        <time>2015-10-10T08:03:29Z</time>
      </trkpt>
      <trkpt lat="44.79155" lon="4.21924">
        <ele>1244.56</ele>
        <time>2015-10-10T08:03:48Z</time>
      </trkpt>
      <trkpt lat="44.79156" lon="4.21922">
        <ele>1244.56</ele>
        <time>2015-10-10T08:04:03Z</time>
      </trkpt>
      <trkpt lat="44.79161" lon="4.21917">
        <ele>1246.01</ele>
        <time>2015-10-10T08:04:14Z</time>
      </trkpt>
      <trkpt lat="44.7916" lon="4.21917">
        <ele>1244.56</ele>
        <time>2015-10-10T08:04:16Z</time>
      </trkpt>
      <trkpt lat="44.79161" lon="4.21914">
        <ele>1244.56</ele>
        <time>2015-10-10T08:04:23Z</time>
      </trkpt>
      <trkpt lat="44.79178" lon="4.21899">
        <ele>1244.08</ele>
        <time>2015-10-10T08:04:43Z</time>
      </trkpt>
      <trkpt lat="44.7919" lon="4.21882">
        <ele>1244.08</ele>
        <time>2015-10-10T08:05:00Z</time>
      </trkpt>
      <trkpt lat="44.792" lon="4.21856">
        <ele>1244.08</ele>
        <time>2015-10-10T08:05:20Z</time>
      </trkpt>
      <trkpt lat="44.79212" lon="4.21834">
        <ele>1243.6</ele>
        <time>2015-10-10T08:05:40Z</time>
      </trkpt>
      <trkpt lat="44.79223" lon="4.21814">
        <ele>1243.6</ele>
        <time>2015-10-10T08:05:57Z</time>
      </trkpt>
      <trkpt lat="44.79234" lon="4.2179">
        <ele>1243.6</ele>
        <time>2015-10-10T08:06:15Z</time>
      </trkpt>
      <trkpt lat="44.79245" lon="4.21767">
        <ele>1243.6</ele>
        <time>2015-10-10T08:06:37Z</time>
      </trkpt>
      <trkpt lat="44.79256" lon="4.21751">
        <ele>1244.56</ele>
        <time>2015-10-10T08:06:54Z</time>
      </trkpt>
      <trkpt lat="44.79261" lon="4.21742">
        <ele>1245.04</ele>
        <time>2015-10-10T08:07:02Z</time>
      </trkpt>
      <trkpt lat="44.79275" lon="4.21735">
        <ele>1248.89</ele>
        <time>2015-10-10T08:07:15Z</time>
      </trkpt>
      <trkpt lat="44.79276" lon="4.21734">
        <ele>1246.01</ele>
        <time>2015-10-10T08:07:17Z</time>
      </trkpt>
      <trkpt lat="44.79279" lon="4.21732">
        <ele>1247.45</ele>
        <time>2015-10-10T08:07:21Z</time>
      </trkpt>
      <trkpt lat="44.79292" lon="4.21729">
        <ele>1246.97</ele>
        <time>2015-10-10T08:07:36Z</time>
      </trkpt>
      <trkpt lat="44.79315" lon="4.21725">
        <ele>1246.97</ele>
        <time>2015-10-10T08:08:00Z</time>
      </trkpt>
      <trkpt lat="44.7934" lon="4.21722">
        <ele>1246.97</ele>
        <time>2015-10-10T08:08:22Z</time>
      </trkpt>
      <trkpt lat="44.79366" lon="4.21715">
        <ele>1246.97</ele>
        <time>2015-10-10T08:08:47Z</time>
      </trkpt>
      <trkpt lat="44.79394" lon="4.21696">
        <ele>1247.93</ele>
        <time>2015-10-10T08:09:14Z</time>
      </trkpt>
      <trkpt lat="44.7941" lon="4.21669">
        <ele>1248.41</ele>
        <time>2015-10-10T08:09:37Z</time>
      </trkpt>
      <trkpt lat="44.79411" lon="4.21638">
        <ele>1248.41</ele>
        <time>2015-10-10T08:09:57Z</time>
      </trkpt>
      <trkpt lat="44.79404" lon="4.21613">
        <ele>1245.53</ele>
        <time>2015-10-10T08:10:17Z</time>
      </trkpt>
      <trkpt lat="44.79404" lon="4.21614">
        <ele>1249.37</ele>
        <time>2015-10-10T08:10:18Z</time>
      </trkpt>
      <trkpt lat="44.79403" lon="4.21615">
        <ele>1247.93</ele>
        <time>2015-10-10T08:10:41Z</time>
      </trkpt>
      <trkpt lat="44.79404" lon="4.21616">
        <ele>1247.93</ele>
        <time>2015-10-10T08:11:06Z</time>
      </trkpt>
      <trkpt lat="44.79405" lon="4.21616">
        <ele>1247.93</ele>
        <time>2015-10-10T08:11:36Z</time>
      </trkpt>
      <trkpt lat="44.79406" lon="4.21614">
        <ele>1247.93</ele>
        <time>2015-10-10T08:12:00Z</time>
      </trkpt>
      <trkpt lat="44.79403" lon="4.216">
        <ele>1247.45</ele>
        <time>2015-10-10T08:12:14Z</time>
      </trkpt>
      <trkpt lat="44.79403" lon="4.21599">
        <ele>1247.45</ele>
        <time>2015-10-10T08:12:15Z</time>
      </trkpt>
      <trkpt lat="44.79406" lon="4.21578">
        <ele>1247.45</ele>
        <time>2015-10-10T08:12:32Z</time>
      </trkpt>
      <trkpt lat="44.79415" lon="4.21562">
        <ele>1247.45</ele>
        <time>2015-10-10T08:12:49Z</time>
      </trkpt>
      <trkpt lat="44.79425" lon="4.21548">
        <ele>1248.89</ele>
        <time>2015-10-10T08:13:04Z</time>
      </trkpt>
      <trkpt lat="44.79434" lon="4.21533">
        <ele>1248.89</ele>
        <time>2015-10-10T08:13:19Z</time>
      </trkpt>
      <trkpt lat="44.79446" lon="4.21515">
        <ele>1248.89</ele>
        <time>2015-10-10T08:13:38Z</time>
      </trkpt>
      <trkpt lat="44.79454" lon="4.21496">
        <ele>1249.37</ele>
        <time>2015-10-10T08:13:57Z</time>
      </trkpt>
      <trkpt lat="44.79459" lon="4.21486">
        <ele>1249.85</ele>
        <time>2015-10-10T08:14:12Z</time>
      </trkpt>
      <trkpt lat="44.79467" lon="4.21465">
        <ele>1249.85</ele>
        <time>2015-10-10T08:14:28Z</time>
      </trkpt>
      <trkpt lat="44.79472" lon="4.2144">
        <ele>1250.33</ele>
        <time>2015-10-10T08:14:46Z</time>
      </trkpt>
      <trkpt lat="44.79481" lon="4.2141">
        <ele>1250.81</ele>
        <time>2015-10-10T08:15:08Z</time>
      </trkpt>
      <trkpt lat="44.79489" lon="4.21388">
        <ele>1250.81</ele>
        <time>2015-10-10T08:15:26Z</time>
      </trkpt>
      <trkpt lat="44.79501" lon="4.21366">
        <ele>1250.81</ele>
        <time>2015-10-10T08:15:46Z</time>
      </trkpt>
      <trkpt lat="44.79505" lon="4.21344">
        <ele>1250.81</ele>
        <time>2015-10-10T08:16:02Z</time>
      </trkpt>
      <trkpt lat="44.79512" lon="4.2132">
        <ele>1251.29</ele>
        <time>2015-10-10T08:16:20Z</time>
      </trkpt>
      <trkpt lat="44.79516" lon="4.21305">
        <ele>1251.77</ele>
        <time>2015-10-10T08:16:31Z</time>
      </trkpt>
      <trkpt lat="44.79517" lon="4.21304">
        <ele>1251.77</ele>
        <time>2015-10-10T08:16:32Z</time>
      </trkpt>
      <trkpt lat="44.79517" lon="4.21303">
        <ele>1251.77</ele>
        <time>2015-10-10T08:16:33Z</time>
      </trkpt>
      <trkpt lat="44.79519" lon="4.21281">
        <ele>1252.74</ele>
        <time>2015-10-10T08:16:50Z</time>
      </trkpt>
      <trkpt lat="44.79516" lon="4.21263">
        <ele>1253.7</ele>
        <time>2015-10-10T08:17:07Z</time>
      </trkpt>
      <trkpt lat="44.79515" lon="4.21254">
        <ele>1254.18</ele>
        <time>2015-10-10T08:17:22Z</time>
      </trkpt>
      <trkpt lat="44.79514" lon="4.21241">
        <ele>1255.14</ele>
        <time>2015-10-10T08:17:35Z</time>
      </trkpt>
      <trkpt lat="44.79513" lon="4.21225">
        <ele>1256.1</ele>
        <time>2015-10-10T08:17:49Z</time>
      </trkpt>
      <trkpt lat="44.79514" lon="4.21218">
        <ele>1257.06</ele>
        <time>2015-10-10T08:18:08Z</time>
      </trkpt>
      <trkpt lat="44.79511" lon="4.21195">
        <ele>1257.54</ele>
        <time>2015-10-10T08:18:26Z</time>
      </trkpt>
      <trkpt lat="44.7951" lon="4.21173">
        <ele>1258.02</ele>
        <time>2015-10-10T08:18:41Z</time>
      </trkpt>
      <trkpt lat="44.79511" lon="4.21147">
        <ele>1258.02</ele>
        <time>2015-10-10T08:18:59Z</time>
      </trkpt>
      <trkpt lat="44.79512" lon="4.21117">
        <ele>1258.02</ele>
        <time>2015-10-10T08:19:18Z</time>
      </trkpt>
      <trkpt lat="44.79512" lon="4.21097">
        <ele>1256.58</ele>
        <time>2015-10-10T08:19:32Z</time>
      </trkpt>
      <trkpt lat="44.79512" lon="4.21093">
        <ele>1256.58</ele>
        <time>2015-10-10T08:19:35Z</time>
      </trkpt>
      <trkpt lat="44.79512" lon="4.21091">
        <ele>1256.58</ele>
        <time>2015-10-10T08:19:36Z</time>
      </trkpt>
      <trkpt lat="44.79511" lon="4.21082">
        <ele>1256.1</ele>
        <time>2015-10-10T08:19:42Z</time>
      </trkpt>
      <trkpt lat="44.79512" lon="4.2108">
        <ele>1256.1</ele>
        <time>2015-10-10T08:19:43Z</time>
      </trkpt>
      <trkpt lat="44.79511" lon="4.21053">
        <ele>1256.1</ele>
        <time>2015-10-10T08:20:02Z</time>
      </trkpt>
      <trkpt lat="44.79512" lon="4.21046">
        <ele>1257.54</ele>
        <time>2015-10-10T08:20:07Z</time>
      </trkpt>
      <trkpt lat="44.79512" lon="4.21043">
        <ele>1257.54</ele>
        <time>2015-10-10T08:20:09Z</time>
      </trkpt>
      <trkpt lat="44.79507" lon="4.21021">
        <ele>1258.5</ele>
        <time>2015-10-10T08:20:26Z</time>
      </trkpt>
      <trkpt lat="44.79499" lon="4.21007">
        <ele>1258.98</ele>
        <time>2015-10-10T08:20:39Z</time>
      </trkpt>
      <trkpt lat="44.79498" lon="4.21006">
        <ele>1258.98</ele>
        <time>2015-10-10T08:20:40Z</time>
      </trkpt>
      <trkpt lat="44.79498" lon="4.21005">
        <ele>1258.98</ele>
        <time>2015-10-10T08:20:41Z</time>
      </trkpt>
      <trkpt lat="44.79492" lon="4.20997">
        <ele>1258.98</ele>
        <time>2015-10-10T08:20:49Z</time>
      </trkpt>
      <trkpt lat="44.79491" lon="4.20997">
        <ele>1258.98</ele>
        <time>2015-10-10T08:20:50Z</time>
      </trkpt>
      <trkpt lat="44.79476" lon="4.2098">
        <ele>1259.46</ele>
        <time>2015-10-10T08:21:10Z</time>
      </trkpt>
      <trkpt lat="44.79461" lon="4.20966">
        <ele>1259.46</ele>
        <time>2015-10-10T08:21:28Z</time>
      </trkpt>
      <trkpt lat="44.79454" lon="4.20956">
        <ele>1259.46</ele>
        <time>2015-10-10T08:21:37Z</time>
      </trkpt>
      <trkpt lat="44.79454" lon="4.20954">
        <ele>1259.46</ele>
        <time>2015-10-10T08:21:38Z</time>
      </trkpt>
      <trkpt lat="44.79453" lon="4.20953">
        <ele>1259.46</ele>
        <time>2015-10-10T08:21:39Z</time>
      </trkpt>
      <trkpt lat="44.7945" lon="4.20933">
        <ele>1259.94</ele>
        <time>2015-10-10T08:21:51Z</time>
      </trkpt>
      <trkpt lat="44.79453" lon="4.20909">
        <ele>1260.43</ele>
        <time>2015-10-10T08:22:07Z</time>
      </trkpt>
      <trkpt lat="44.79457" lon="4.20889">
        <ele>1261.39</ele>
        <time>2015-10-10T08:22:23Z</time>
      </trkpt>
      <trkpt lat="44.79458" lon="4.20884">
        <ele>1261.39</ele>
        <time>2015-10-10T08:22:27Z</time>
      </trkpt>
      <trkpt lat="44.79468" lon="4.20866">
        <ele>1262.83</ele>
        <time>2015-10-10T08:22:43Z</time>
      </trkpt>
      <trkpt lat="44.79474" lon="4.20848">
        <ele>1265.23</ele>
        <time>2015-10-10T08:22:59Z</time>
      </trkpt>
      <trkpt lat="44.79485" lon="4.20825">
        <ele>1263.79</ele>
        <time>2015-10-10T08:23:20Z</time>
      </trkpt>
      <trkpt lat="44.79494" lon="4.2081">
        <ele>1263.79</ele>
        <time>2015-10-10T08:23:33Z</time>
      </trkpt>
      <trkpt lat="44.79499" lon="4.20792">
        <ele>1265.23</ele>
        <time>2015-10-10T08:23:47Z</time>
      </trkpt>
      <trkpt lat="44.79504" lon="4.20777">
        <ele>1265.71</ele>
        <time>2015-10-10T08:24:00Z</time>
      </trkpt>
      <trkpt lat="44.79513" lon="4.20758">
        <ele>1266.67</ele>
        <time>2015-10-10T08:24:17Z</time>
      </trkpt>
      <trkpt lat="44.7952" lon="4.20738">
        <ele>1267.16</ele>
        <time>2015-10-10T08:24:33Z</time>
      </trkpt>
      <trkpt lat="44.79527" lon="4.20719">
        <ele>1268.12</ele>
        <time>2015-10-10T08:24:50Z</time>
      </trkpt>
      <trkpt lat="44.79532" lon="4.207">
        <ele>1268.12</ele>
        <time>2015-10-10T08:25:04Z</time>
      </trkpt>
      <trkpt lat="44.79538" lon="4.2068">
        <ele>1268.6</ele>
        <time>2015-10-10T08:25:21Z</time>
      </trkpt>
      <trkpt lat="44.79539" lon="4.20677">
        <ele>1269.08</ele>
        <time>2015-10-10T08:25:36Z</time>
      </trkpt>
      <trkpt lat="44.79542" lon="4.20669">
        <ele>1269.08</ele>
        <time>2015-10-10T08:25:52Z</time>
      </trkpt>
      <trkpt lat="44.79538" lon="4.20656">
        <ele>1269.08</ele>
        <time>2015-10-10T08:26:07Z</time>
      </trkpt>
      <trkpt lat="44.79538" lon="4.20652">
        <ele>1269.08</ele>
        <time>2015-10-10T08:26:26Z</time>
      </trkpt>
      <trkpt lat="44.79534" lon="4.20643">
        <ele>1269.08</ele>
        <time>2015-10-10T08:26:46Z</time>
      </trkpt>
      <trkpt lat="44.79524" lon="4.20636">
        <ele>1268.6</ele>
        <time>2015-10-10T08:27:03Z</time>
      </trkpt>
      <trkpt lat="44.79513" lon="4.2063">
        <ele>1267.64</ele>
        <time>2015-10-10T08:27:23Z</time>
      </trkpt>
      <trkpt lat="44.79499" lon="4.20628">
        <ele>1266.67</ele>
        <time>2015-10-10T08:27:40Z</time>
      </trkpt>
      <trkpt lat="44.79484" lon="4.20623">
        <ele>1265.71</ele>
        <time>2015-10-10T08:27:59Z</time>
      </trkpt>
      <trkpt lat="44.79474" lon="4.20624">
        <ele>1265.23</ele>
        <time>2015-10-10T08:28:16Z</time>
      </trkpt>
      <trkpt lat="44.79464" lon="4.20623">
        <ele>1263.79</ele>
        <time>2015-10-10T08:28:30Z</time>
      </trkpt>
      <trkpt lat="44.79457" lon="4.20619">
        <ele>1263.79</ele>
        <time>2015-10-10T08:28:37Z</time>
      </trkpt>
      <trkpt lat="44.7945" lon="4.20616">
        <ele>1263.79</ele>
        <time>2015-10-10T08:28:53Z</time>
      </trkpt>
      <trkpt lat="44.79446" lon="4.20615">
        <ele>1263.31</ele>
        <time>2015-10-10T08:28:58Z</time>
      </trkpt>
      <trkpt lat="44.79429" lon="4.20613">
        <ele>1262.83</ele>
        <time>2015-10-10T08:29:15Z</time>
      </trkpt>
      <trkpt lat="44.79407" lon="4.20609">
        <ele>1262.35</ele>
        <time>2015-10-10T08:29:34Z</time>
      </trkpt>
      <trkpt lat="44.79388" lon="4.20605">
        <ele>1262.35</ele>
        <time>2015-10-10T08:29:55Z</time>
      </trkpt>
      <trkpt lat="44.79382" lon="4.20608">
        <ele>1262.35</ele>
        <time>2015-10-10T08:30:11Z</time>
      </trkpt>
      <trkpt lat="44.79376" lon="4.20609">
        <ele>1262.35</ele>
        <time>2015-10-10T08:30:25Z</time>
      </trkpt>
      <trkpt lat="44.79369" lon="4.20607">
        <ele>1261.87</ele>
        <time>2015-10-10T08:30:42Z</time>
      </trkpt>
      <trkpt lat="44.79362" lon="4.206">
        <ele>1261.87</ele>
        <time>2015-10-10T08:31:00Z</time>
      </trkpt>
      <trkpt lat="44.79355" lon="4.20593">
        <ele>1261.87</ele>
        <time>2015-10-10T08:31:09Z</time>
      </trkpt>
      <trkpt lat="44.79353" lon="4.20592">
        <ele>1261.87</ele>
        <time>2015-10-10T08:31:11Z</time>
      </trkpt>
      <trkpt lat="44.79333" lon="4.20585">
        <ele>1261.87</ele>
        <time>2015-10-10T08:31:31Z</time>
      </trkpt>
      <trkpt lat="44.79317" lon="4.20581">
        <ele>1260.91</ele>
        <time>2015-10-10T08:31:46Z</time>
      </trkpt>
      <trkpt lat="44.79294" lon="4.20574">
        <ele>1260.43</ele>
        <time>2015-10-10T08:32:08Z</time>
      </trkpt>
      <trkpt lat="44.79284" lon="4.20574">
        <ele>1261.87</ele>
        <time>2015-10-10T08:32:25Z</time>
      </trkpt>
      <trkpt lat="44.79285" lon="4.20574">
        <ele>1261.87</ele>
        <time>2015-10-10T08:32:26Z</time>
      </trkpt>
      <trkpt lat="44.79284" lon="4.20574">
        <ele>1260.91</ele>
        <time>2015-10-10T08:32:34Z</time>
      </trkpt>
      <trkpt lat="44.79282" lon="4.20574">
        <ele>1260.91</ele>
        <time>2015-10-10T08:32:54Z</time>
      </trkpt>
      <trkpt lat="44.79282" lon="4.20573">
        <ele>1261.87</ele>
        <time>2015-10-10T08:33:06Z</time>
      </trkpt>
      <trkpt lat="44.79281" lon="4.20573">
        <ele>1260.43</ele>
        <time>2015-10-10T08:33:11Z</time>
      </trkpt>
      <trkpt lat="44.79282" lon="4.20573">
        <ele>1259.94</ele>
        <time>2015-10-10T08:33:31Z</time>
      </trkpt>
      <trkpt lat="44.79282" lon="4.20572">
        <ele>1260.43</ele>
        <time>2015-10-10T08:34:04Z</time>
      </trkpt>
      <trkpt lat="44.79281" lon="4.20573">
        <ele>1260.43</ele>
        <time>2015-10-10T08:34:45Z</time>
      </trkpt>
      <trkpt lat="44.7928" lon="4.20573">
        <ele>1260.43</ele>
        <time>2015-10-10T08:35:19Z</time>
      </trkpt>
      <trkpt lat="44.7928" lon="4.20573">
        <ele>1260.43</ele>
        <time>2015-10-10T08:35:53Z</time>
      </trkpt>
      <trkpt lat="44.79281" lon="4.20573">
        <ele>1260.43</ele>
        <time>2015-10-10T08:36:29Z</time>
      </trkpt>
      <trkpt lat="44.7928" lon="4.20573">
        <ele>1260.43</ele>
        <time>2015-10-10T08:37:01Z</time>
      </trkpt>
      <trkpt lat="44.7928" lon="4.20575">
        <ele>1260.43</ele>
        <time>2015-10-10T08:37:37Z</time>
      </trkpt>
      <trkpt lat="44.79281" lon="4.20576">
        <ele>1260.43</ele>
        <time>2015-10-10T08:38:05Z</time>
      </trkpt>
      <trkpt lat="44.79281" lon="4.20575">
        <ele>1261.87</ele>
        <time>2015-10-10T08:38:40Z</time>
      </trkpt>
      <trkpt lat="44.79281" lon="4.20576">
        <ele>1261.87</ele>
        <time>2015-10-10T08:39:08Z</time>
      </trkpt>
      <trkpt lat="44.79282" lon="4.20575">
        <ele>1261.87</ele>
        <time>2015-10-10T08:39:42Z</time>
      </trkpt>
      <trkpt lat="44.7928" lon="4.20576">
        <ele>1261.87</ele>
        <time>2015-10-10T08:40:24Z</time>
      </trkpt>
      <trkpt lat="44.7928" lon="4.20576">
        <ele>1262.35</ele>
        <time>2015-10-10T08:41:07Z</time>
      </trkpt>
      <trkpt lat="44.7928" lon="4.20577">
        <ele>1262.35</ele>
        <time>2015-10-10T08:41:49Z</time>
      </trkpt>
      <trkpt lat="44.7928" lon="4.20577">
        <ele>1262.35</ele>
        <time>2015-10-10T08:42:28Z</time>
      </trkpt>
      <trkpt lat="44.79281" lon="4.20575">
        <ele>1262.83</ele>
        <time>2015-10-10T08:43:09Z</time>
      </trkpt>
      <trkpt lat="44.79282" lon="4.20575">
        <ele>1262.83</ele>
        <time>2015-10-10T08:43:44Z</time>
      </trkpt>
      <trkpt lat="44.7928" lon="4.20576">
        <ele>1262.83</ele>
        <time>2015-10-10T08:44:23Z</time>
      </trkpt>
      <trkpt lat="44.79279" lon="4.20577">
        <ele>1264.27</ele>
        <time>2015-10-10T08:44:53Z</time>
      </trkpt>
      <trkpt lat="44.79279" lon="4.20576">
        <ele>1264.27</ele>
        <time>2015-10-10T08:45:05Z</time>
      </trkpt>
      <trkpt lat="44.7928" lon="4.20577">
        <ele>1264.27</ele>
        <time>2015-10-10T08:45:20Z</time>
      </trkpt>
      <trkpt lat="44.79281" lon="4.20578">
        <ele>1264.27</ele>
        <time>2015-10-10T08:45:43Z</time>
      </trkpt>
      <trkpt lat="44.79274" lon="4.20575">
        <ele>1264.27</ele>
        <time>2015-10-10T08:45:57Z</time>
      </trkpt>
      <trkpt lat="44.79256" lon="4.20567">
        <ele>1264.27</ele>
        <time>2015-10-10T08:46:15Z</time>
      </trkpt>
      <trkpt lat="44.7924" lon="4.20564">
        <ele>1264.27</ele>
        <time>2015-10-10T08:46:32Z</time>
      </trkpt>
      <trkpt lat="44.79225" lon="4.20561">
        <ele>1264.27</ele>
        <time>2015-10-10T08:46:48Z</time>
      </trkpt>
      <trkpt lat="44.79211" lon="4.20558">
        <ele>1264.75</ele>
        <time>2015-10-10T08:47:03Z</time>
      </trkpt>
      <trkpt lat="44.79197" lon="4.20556">
        <ele>1265.23</ele>
        <time>2015-10-10T08:47:20Z</time>
      </trkpt>
      <trkpt lat="44.7918" lon="4.20553">
        <ele>1266.19</ele>
        <time>2015-10-10T08:47:37Z</time>
      </trkpt>
      <trkpt lat="44.79164" lon="4.20551">
        <ele>1266.67</ele>
        <time>2015-10-10T08:47:55Z</time>
      </trkpt>
      <trkpt lat="44.79147" lon="4.2055">
        <ele>1267.64</ele>
        <time>2015-10-10T08:48:13Z</time>
      </trkpt>
      <trkpt lat="44.79128" lon="4.20547">
        <ele>1268.6</ele>
        <time>2015-10-10T08:48:33Z</time>
      </trkpt>
      <trkpt lat="44.79111" lon="4.20543">
        <ele>1269.08</ele>
        <time>2015-10-10T08:48:50Z</time>
      </trkpt>
      <trkpt lat="44.79093" lon="4.20537">
        <ele>1269.08</ele>
        <time>2015-10-10T08:49:09Z</time>
      </trkpt>
      <trkpt lat="44.79071" lon="4.20527">
        <ele>1269.56</ele>
        <time>2015-10-10T08:49:30Z</time>
      </trkpt>
      <trkpt lat="44.7905" lon="4.20517">
        <ele>1269.56</ele>
        <time>2015-10-10T08:49:51Z</time>
      </trkpt>
      <trkpt lat="44.79031" lon="4.20509">
        <ele>1269.56</ele>
        <time>2015-10-10T08:50:11Z</time>
      </trkpt>
      <trkpt lat="44.79014" lon="4.205">
        <ele>1268.6</ele>
        <time>2015-10-10T08:50:30Z</time>
      </trkpt>
      <trkpt lat="44.79003" lon="4.20493">
        <ele>1268.6</ele>
        <time>2015-10-10T08:50:44Z</time>
      </trkpt>
      <trkpt lat="44.78988" lon="4.20486">
        <ele>1267.64</ele>
        <time>2015-10-10T08:51:02Z</time>
      </trkpt>
      <trkpt lat="44.7897" lon="4.20477">
        <ele>1266.67</ele>
        <time>2015-10-10T08:51:23Z</time>
      </trkpt>
      <trkpt lat="44.78959" lon="4.20472">
        <ele>1265.71</ele>
        <time>2015-10-10T08:51:37Z</time>
      </trkpt>
      <trkpt lat="44.78954" lon="4.2047">
        <ele>1265.71</ele>
        <time>2015-10-10T08:51:52Z</time>
      </trkpt>
      <trkpt lat="44.78943" lon="4.20461">
        <ele>1264.75</ele>
        <time>2015-10-10T08:52:07Z</time>
      </trkpt>
      <trkpt lat="44.78929" lon="4.20449">
        <ele>1264.27</ele>
        <time>2015-10-10T08:52:26Z</time>
      </trkpt>
      <trkpt lat="44.78919" lon="4.20445">
        <ele>1262.83</ele>
        <time>2015-10-10T08:52:43Z</time>
      </trkpt>
      <trkpt lat="44.7891" lon="4.2044">
        <ele>1261.87</ele>
        <time>2015-10-10T08:52:58Z</time>
      </trkpt>
      <trkpt lat="44.78902" lon="4.20435">
        <ele>1260.91</ele>
        <time>2015-10-10T08:53:17Z</time>
      </trkpt>
      <trkpt lat="44.78897" lon="4.20431">
        <ele>1260.43</ele>
        <time>2015-10-10T08:53:35Z</time>
      </trkpt>
      <trkpt lat="44.78891" lon="4.20428">
        <ele>1260.43</ele>
        <time>2015-10-10T08:53:52Z</time>
      </trkpt>
      <trkpt lat="44.78884" lon="4.20423">
        <ele>1259.94</ele>
        <time>2015-10-10T08:54:06Z</time>
      </trkpt>
      <trkpt lat="44.78875" lon="4.20417">
        <ele>1259.46</ele>
        <time>2015-10-10T08:54:26Z</time>
      </trkpt>
      <trkpt lat="44.78864" lon="4.20409">
        <ele>1258.98</ele>
        <time>2015-10-10T08:54:43Z</time>
      </trkpt>
      <trkpt lat="44.78853" lon="4.20405">
        <ele>1255.14</ele>
        <time>2015-10-10T08:54:56Z</time>
      </trkpt>
      <trkpt lat="44.78851" lon="4.20402">
        <ele>1263.31</ele>
        <time>2015-10-10T08:54:57Z</time>
      </trkpt>
      <trkpt lat="44.78849" lon="4.204">
        <ele>1258.98</ele>
        <time>2015-10-10T08:54:58Z</time>
      </trkpt>
      <trkpt lat="44.78829" lon="4.20395">
        <ele>1258.5</ele>
        <time>2015-10-10T08:55:16Z</time>
      </trkpt>
      <trkpt lat="44.78814" lon="4.20393">
        <ele>1258.5</ele>
        <time>2015-10-10T08:55:32Z</time>
      </trkpt>
      <trkpt lat="44.78794" lon="4.20387">
        <ele>1259.94</ele>
        <time>2015-10-10T08:55:50Z</time>
      </trkpt>
      <trkpt lat="44.78777" lon="4.20383">
        <ele>1259.94</ele>
        <time>2015-10-10T08:56:07Z</time>
      </trkpt>
      <trkpt lat="44.78762" lon="4.20382">
        <ele>1259.94</ele>
        <time>2015-10-10T08:56:22Z</time>
      </trkpt>
      <trkpt lat="44.78741" lon="4.20382">
        <ele>1259.94</ele>
        <time>2015-10-10T08:56:42Z</time>
      </trkpt>
      <trkpt lat="44.7872" lon="4.20382">
        <ele>1257.54</ele>
        <time>2015-10-10T08:57:01Z</time>
      </trkpt>
      <trkpt lat="44.78701" lon="4.20381">
        <ele>1256.58</ele>
        <time>2015-10-10T08:57:19Z</time>
      </trkpt>
      <trkpt lat="44.78688" lon="4.20381">
        <ele>1255.14</ele>
        <time>2015-10-10T08:57:36Z</time>
      </trkpt>
      <trkpt lat="44.78668" lon="4.20379">
        <ele>1252.74</ele>
        <time>2015-10-10T08:57:56Z</time>
      </trkpt>
      <trkpt lat="44.78654" lon="4.20378">
        <ele>1252.25</ele>
        <time>2015-10-10T08:58:13Z</time>
      </trkpt>
      <trkpt lat="44.78638" lon="4.20378">
        <ele>1251.29</ele>
        <time>2015-10-10T08:58:33Z</time>
      </trkpt>
      <trkpt lat="44.78623" lon="4.20378">
        <ele>1250.81</ele>
        <time>2015-10-10T08:58:50Z</time>
      </trkpt>
      <trkpt lat="44.78613" lon="4.20378">
        <ele>1250.33</ele>
        <time>2015-10-10T08:59:01Z</time>
      </trkpt>
      <trkpt lat="44.78605" lon="4.20381">
        <ele>1250.33</ele>
        <time>2015-10-10T08:59:07Z</time>
      </trkpt>
      <trkpt lat="44.78586" lon="4.2039">
        <ele>1250.33</ele>
        <time>2015-10-10T08:59:25Z</time>
      </trkpt>
      <trkpt lat="44.7858" lon="4.20387">
        <ele>1250.33</ele>
        <time>2015-10-10T08:59:31Z</time>
      </trkpt>
      <trkpt lat="44.78579" lon="4.20386">
        <ele>1250.33</ele>
        <time>2015-10-10T08:59:32Z</time>
      </trkpt>
      <trkpt lat="44.78572" lon="4.20379">
        <ele>1249.85</ele>
        <time>2015-10-10T08:59:48Z</time>
      </trkpt>
      <trkpt lat="44.78571" lon="4.20379">
        <ele>1249.85</ele>
        <time>2015-10-10T09:00:22Z</time>
      </trkpt>
      <trkpt lat="44.78573" lon="4.20381">
        <ele>1249.85</ele>
        <time>2015-10-10T09:00:52Z</time>
      </trkpt>
      <trkpt lat="44.78573" lon="4.20382">
        <ele>1249.85</ele>
        <time>2015-10-10T09:01:15Z</time>
      </trkpt>
      <trkpt lat="44.78566" lon="4.20374">
        <ele>1249.85</ele>
        <time>2015-10-10T09:01:42Z</time>
      </trkpt>
      <trkpt lat="44.78555" lon="4.20373">
        <ele>1250.33</ele>
        <time>2015-10-10T09:02:01Z</time>
      </trkpt>
      <trkpt lat="44.78551" lon="4.20373">
        <ele>1250.33</ele>
        <time>2015-10-10T09:02:16Z</time>
      </trkpt>
      <trkpt lat="44.78543" lon="4.20369">
        <ele>1250.33</ele>
        <time>2015-10-10T09:02:25Z</time>
      </trkpt>
      <trkpt lat="44.78526" lon="4.20362">
        <ele>1250.33</ele>
        <time>2015-10-10T09:02:45Z</time>
      </trkpt>
      <trkpt lat="44.78511" lon="4.20362">
        <ele>1250.33</ele>
        <time>2015-10-10T09:03:05Z</time>
      </trkpt>
      <trkpt lat="44.7849" lon="4.20355">
        <ele>1250.33</ele>
        <time>2015-10-10T09:03:28Z</time>
      </trkpt>
      <trkpt lat="44.78474" lon="4.20349">
        <ele>1250.81</ele>
        <time>2015-10-10T09:03:48Z</time>
      </trkpt>
      <trkpt lat="44.78463" lon="4.20345">
        <ele>1250.33</ele>
        <time>2015-10-10T09:04:09Z</time>
      </trkpt>
      <trkpt lat="44.78461" lon="4.20344">
        <ele>1250.33</ele>
        <time>2015-10-10T09:04:29Z</time>
      </trkpt>
      <trkpt lat="44.7846" lon="4.20343">
        <ele>1249.85</ele>
        <time>2015-10-10T09:04:36Z</time>
      </trkpt>
      <trkpt lat="44.78458" lon="4.20341">
        <ele>1252.25</ele>
        <time>2015-10-10T09:04:38Z</time>
      </trkpt>
      <trkpt lat="44.78453" lon="4.20339">
        <ele>1250.81</ele>
        <time>2015-10-10T09:04:47Z</time>
      </trkpt>
      <trkpt lat="44.78442" lon="4.20329">
        <ele>1250.81</ele>
        <time>2015-10-10T09:05:07Z</time>
      </trkpt>
      <trkpt lat="44.7843" lon="4.20315">
        <ele>1250.81</ele>
        <time>2015-10-10T09:05:26Z</time>
      </trkpt>
      <trkpt lat="44.78416" lon="4.20303">
        <ele>1250.33</ele>
        <time>2015-10-10T09:05:47Z</time>
      </trkpt>
      <trkpt lat="44.7841" lon="4.20299">
        <ele>1250.33</ele>
        <time>2015-10-10T09:06:07Z</time>
      </trkpt>
      <trkpt lat="44.78398" lon="4.2029">
        <ele>1249.85</ele>
        <time>2015-10-10T09:06:27Z</time>
      </trkpt>
      <trkpt lat="44.78381" lon="4.20274">
        <ele>1249.85</ele>
        <time>2015-10-10T09:06:49Z</time>
      </trkpt>
      <trkpt lat="44.78375" lon="4.20269">
        <ele>1248.89</ele>
        <time>2015-10-10T09:07:09Z</time>
      </trkpt>
      <trkpt lat="44.78375" lon="4.20268">
        <ele>1250.81</ele>
        <time>2015-10-10T09:07:11Z</time>
      </trkpt>
      <trkpt lat="44.78373" lon="4.20268">
        <ele>1249.85</ele>
        <time>2015-10-10T09:07:31Z</time>
      </trkpt>
      <trkpt lat="44.78373" lon="4.20267">
        <ele>1249.85</ele>
        <time>2015-10-10T09:07:52Z</time>
      </trkpt>
      <trkpt lat="44.78373" lon="4.20265">
        <ele>1249.85</ele>
        <time>2015-10-10T09:08:18Z</time>
      </trkpt>
      <trkpt lat="44.78361" lon="4.20255">
        <ele>1250.81</ele>
        <time>2015-10-10T09:08:40Z</time>
      </trkpt>
      <trkpt lat="44.7835" lon="4.20244">
        <ele>1251.29</ele>
        <time>2015-10-10T09:09:01Z</time>
      </trkpt>
      <trkpt lat="44.78343" lon="4.20237">
        <ele>1251.29</ele>
        <time>2015-10-10T09:09:21Z</time>
      </trkpt>
      <trkpt lat="44.78335" lon="4.20233">
        <ele>1251.77</ele>
        <time>2015-10-10T09:09:35Z</time>
      </trkpt>
      <trkpt lat="44.78329" lon="4.20227">
        <ele>1251.77</ele>
        <time>2015-10-10T09:09:53Z</time>
      </trkpt>
      <trkpt lat="44.78315" lon="4.20219">
        <ele>1249.85</ele>
        <time>2015-10-10T09:10:10Z</time>
      </trkpt>
      <trkpt lat="44.78303" lon="4.20217">
        <ele>1248.89</ele>
        <time>2015-10-10T09:10:28Z</time>
      </trkpt>
      <trkpt lat="44.7829" lon="4.20219">
        <ele>1247.93</ele>
        <time>2015-10-10T09:10:47Z</time>
      </trkpt>
      <trkpt lat="44.78278" lon="4.20219">
        <ele>1247.93</ele>
        <time>2015-10-10T09:11:07Z</time>
      </trkpt>
      <trkpt lat="44.78276" lon="4.20219">
        <ele>1247.93</ele>
        <time>2015-10-10T09:11:27Z</time>
      </trkpt>
      <trkpt lat="44.78274" lon="4.20216">
        <ele>1247.93</ele>
        <time>2015-10-10T09:11:42Z</time>
      </trkpt>
      <trkpt lat="44.78269" lon="4.20216">
        <ele>1247.93</ele>
        <time>2015-10-10T09:11:58Z</time>
      </trkpt>
      <trkpt lat="44.78269" lon="4.20216">
        <ele>1249.37</ele>
        <time>2015-10-10T09:12:02Z</time>
      </trkpt>
      <trkpt lat="44.7827" lon="4.20218">
        <ele>1249.37</ele>
        <time>2015-10-10T09:12:17Z</time>
      </trkpt>
      <trkpt lat="44.78268" lon="4.20219">
        <ele>1249.37</ele>
        <time>2015-10-10T09:12:26Z</time>
      </trkpt>
      <trkpt lat="44.78252" lon="4.20226">
        <ele>1248.89</ele>
        <time>2015-10-10T09:12:42Z</time>
      </trkpt>
      <trkpt lat="44.78238" lon="4.20231">
        <ele>1248.89</ele>
        <time>2015-10-10T09:12:58Z</time>
      </trkpt>
      <trkpt lat="44.78223" lon="4.20237">
        <ele>1247.93</ele>
        <time>2015-10-10T09:13:15Z</time>
      </trkpt>
      <trkpt lat="44.78207" lon="4.20241">
        <ele>1246.97</ele>
        <time>2015-10-10T09:13:31Z</time>
      </trkpt>
      <trkpt lat="44.78196" lon="4.20244">
        <ele>1246.49</ele>
        <time>2015-10-10T09:13:45Z</time>
      </trkpt>
      <trkpt lat="44.78181" lon="4.20247">
        <ele>1245.04</ele>
        <time>2015-10-10T09:14:03Z</time>
      </trkpt>
      <trkpt lat="44.78163" lon="4.20252">
        <ele>1243.6</ele>
        <time>2015-10-10T09:14:21Z</time>
      </trkpt>
      <trkpt lat="44.78153" lon="4.20258">
        <ele>1243.12</ele>
        <time>2015-10-10T09:14:35Z</time>
      </trkpt>
      <trkpt lat="44.7815" lon="4.20259">
        <ele>1244.08</ele>
        <time>2015-10-10T09:14:55Z</time>
      </trkpt>
      <trkpt lat="44.7815" lon="4.20259">
        <ele>1241.2</ele>
        <time>2015-10-10T09:14:56Z</time>
      </trkpt>
      <trkpt lat="44.7815" lon="4.20259">
        <ele>1244.08</ele>
        <time>2015-10-10T09:14:57Z</time>
      </trkpt>
      <trkpt lat="44.78151" lon="4.20262">
        <ele>1241.68</ele>
        <time>2015-10-10T09:15:14Z</time>
      </trkpt>
      <trkpt lat="44.7815" lon="4.20267">
        <ele>1241.2</ele>
        <time>2015-10-10T09:15:32Z</time>
      </trkpt>
      <trkpt lat="44.7814" lon="4.20271">
        <ele>1240.24</ele>
        <time>2015-10-10T09:15:50Z</time>
      </trkpt>
      <trkpt lat="44.78134" lon="4.2027">
        <ele>1238.8</ele>
        <time>2015-10-10T09:16:08Z</time>
      </trkpt>
      <trkpt lat="44.7813" lon="4.20272">
        <ele>1238.32</ele>
        <time>2015-10-10T09:16:25Z</time>
      </trkpt>
      <trkpt lat="44.78117" lon="4.20267">
        <ele>1236.39</ele>
        <time>2015-10-10T09:16:41Z</time>
      </trkpt>
      <trkpt lat="44.78103" lon="4.20264">
        <ele>1234.47</ele>
        <time>2015-10-10T09:16:59Z</time>
      </trkpt>
      <trkpt lat="44.78087" lon="4.20265">
        <ele>1232.55</ele>
        <time>2015-10-10T09:17:17Z</time>
      </trkpt>
      <trkpt lat="44.78084" lon="4.20269">
        <ele>1233.99</ele>
        <time>2015-10-10T09:17:30Z</time>
      </trkpt>
      <trkpt lat="44.78081" lon="4.2027">
        <ele>1233.51</ele>
        <time>2015-10-10T09:17:52Z</time>
      </trkpt>
      <trkpt lat="44.7808" lon="4.20271">
        <ele>1233.51</ele>
        <time>2015-10-10T09:18:17Z</time>
      </trkpt>
      <trkpt lat="44.78076" lon="4.20265">
        <ele>1232.55</ele>
        <time>2015-10-10T09:18:35Z</time>
      </trkpt>
      <trkpt lat="44.78067" lon="4.20266">
        <ele>1232.55</ele>
        <time>2015-10-10T09:18:55Z</time>
      </trkpt>
      <trkpt lat="44.78063" lon="4.20269">
        <ele>1232.07</ele>
        <time>2015-10-10T09:19:01Z</time>
      </trkpt>
      <trkpt lat="44.78061" lon="4.20275">
        <ele>1232.55</ele>
        <time>2015-10-10T09:19:19Z</time>
      </trkpt>
      <trkpt lat="44.78058" lon="4.20282">
        <ele>1231.59</ele>
        <time>2015-10-10T09:19:38Z</time>
      </trkpt>
      <trkpt lat="44.78055" lon="4.20287">
        <ele>1231.11</ele>
        <time>2015-10-10T09:19:53Z</time>
      </trkpt>
      <trkpt lat="44.78044" lon="4.20294">
        <ele>1231.11</ele>
        <time>2015-10-10T09:20:08Z</time>
      </trkpt>
      <trkpt lat="44.78031" lon="4.20302">
        <ele>1230.14</ele>
        <time>2015-10-10T09:20:26Z</time>
      </trkpt>
      <trkpt lat="44.78016" lon="4.20314">
        <ele>1229.66</ele>
        <time>2015-10-10T09:20:45Z</time>
      </trkpt>
      <trkpt lat="44.78001" lon="4.20324">
        <ele>1229.18</ele>
        <time>2015-10-10T09:21:03Z</time>
      </trkpt>
      <trkpt lat="44.77986" lon="4.20333">
        <ele>1229.18</ele>
        <time>2015-10-10T09:21:21Z</time>
      </trkpt>
      <trkpt lat="44.77973" lon="4.20345">
        <ele>1229.18</ele>
        <time>2015-10-10T09:21:39Z</time>
      </trkpt>
      <trkpt lat="44.77958" lon="4.2036">
        <ele>1229.18</ele>
        <time>2015-10-10T09:22:00Z</time>
      </trkpt>
      <trkpt lat="44.77939" lon="4.2037">
        <ele>1228.22</ele>
        <time>2015-10-10T09:22:22Z</time>
      </trkpt>
      <trkpt lat="44.77925" lon="4.2038">
        <ele>1227.26</ele>
        <time>2015-10-10T09:22:42Z</time>
      </trkpt>
      <trkpt lat="44.77912" lon="4.20391">
        <ele>1225.34</ele>
        <time>2015-10-10T09:23:02Z</time>
      </trkpt>
      <trkpt lat="44.77908" lon="4.20394">
        <ele>1224.86</ele>
        <time>2015-10-10T09:23:20Z</time>
      </trkpt>
      <trkpt lat="44.77905" lon="4.20397">
        <ele>1223.9</ele>
        <time>2015-10-10T09:23:40Z</time>
      </trkpt>
      <trkpt lat="44.77902" lon="4.20398">
        <ele>1223.42</ele>
        <time>2015-10-10T09:24:03Z</time>
      </trkpt>
      <trkpt lat="44.77902" lon="4.20396">
        <ele>1223.42</ele>
        <time>2015-10-10T09:24:41Z</time>
      </trkpt>
      <trkpt lat="44.77896" lon="4.204">
        <ele>1221.97</ele>
        <time>2015-10-10T09:25:02Z</time>
      </trkpt>
      <trkpt lat="44.77889" lon="4.20398">
        <ele>1219.57</ele>
        <time>2015-10-10T09:25:20Z</time>
      </trkpt>
      <trkpt lat="44.77881" lon="4.20397">
        <ele>1217.17</ele>
        <time>2015-10-10T09:25:39Z</time>
      </trkpt>
      <trkpt lat="44.77871" lon="4.204">
        <ele>1214.28</ele>
        <time>2015-10-10T09:26:00Z</time>
      </trkpt>
      <trkpt lat="44.77864" lon="4.204">
        <ele>1212.36</ele>
        <time>2015-10-10T09:26:17Z</time>
      </trkpt>
      <trkpt lat="44.77856" lon="4.20398">
        <ele>1209.48</ele>
        <time>2015-10-10T09:26:37Z</time>
      </trkpt>
      <trkpt lat="44.7785" lon="4.20398">
        <ele>1208.03</ele>
        <time>2015-10-10T09:26:57Z</time>
      </trkpt>
      <trkpt lat="44.77846" lon="4.20399">
        <ele>1206.11</ele>
        <time>2015-10-10T09:27:18Z</time>
      </trkpt>
      <trkpt lat="44.77844" lon="4.20405">
        <ele>1205.63</ele>
        <time>2015-10-10T09:27:35Z</time>
      </trkpt>
      <trkpt lat="44.77838" lon="4.20408">
        <ele>1203.23</ele>
        <time>2015-10-10T09:27:54Z</time>
      </trkpt>
      <trkpt lat="44.77831" lon="4.20413">
        <ele>1200.82</ele>
        <time>2015-10-10T09:28:12Z</time>
      </trkpt>
      <trkpt lat="44.77823" lon="4.20418">
        <ele>1197.46</ele>
        <time>2015-10-10T09:28:32Z</time>
      </trkpt>
      <trkpt lat="44.77815" lon="4.20424">
        <ele>1196.98</ele>
        <time>2015-10-10T09:28:48Z</time>
      </trkpt>
      <trkpt lat="44.77812" lon="4.20427">
        <ele>1194.58</ele>
        <time>2015-10-10T09:29:07Z</time>
      </trkpt>
      <trkpt lat="44.77807" lon="4.20434">
        <ele>1192.17</ele>
        <time>2015-10-10T09:29:28Z</time>
      </trkpt>
      <trkpt lat="44.77799" lon="4.20438">
        <ele>1190.73</ele>
        <time>2015-10-10T09:29:45Z</time>
      </trkpt>
      <trkpt lat="44.77797" lon="4.2044">
        <ele>1190.25</ele>
        <time>2015-10-10T09:30:02Z</time>
      </trkpt>
      <trkpt lat="44.77797" lon="4.20437">
        <ele>1189.29</ele>
        <time>2015-10-10T09:30:25Z</time>
      </trkpt>
      <trkpt lat="44.77791" lon="4.20433">
        <ele>1188.81</ele>
        <time>2015-10-10T09:30:48Z</time>
      </trkpt>
      <trkpt lat="44.77781" lon="4.20449">
        <ele>1186.88</ele>
        <time>2015-10-10T09:31:12Z</time>
      </trkpt>
      <trkpt lat="44.77777" lon="4.20461">
        <ele>1185.44</ele>
        <time>2015-10-10T09:31:34Z</time>
      </trkpt>
      <trkpt lat="44.77774" lon="4.20477">
        <ele>1184.96</ele>
        <time>2015-10-10T09:31:52Z</time>
      </trkpt>
      <trkpt lat="44.77775" lon="4.20496">
        <ele>1184.48</ele>
        <time>2015-10-10T09:32:12Z</time>
      </trkpt>
      <trkpt lat="44.77778" lon="4.20517">
        <ele>1184</ele>
        <time>2015-10-10T09:32:30Z</time>
      </trkpt>
      <trkpt lat="44.77782" lon="4.20545">
        <ele>1184</ele>
        <time>2015-10-10T09:32:51Z</time>
      </trkpt>
      <trkpt lat="44.77783" lon="4.20555">
        <ele>1184</ele>
        <time>2015-10-10T09:32:58Z</time>
      </trkpt>
      <trkpt lat="44.77784" lon="4.20585">
        <ele>1183.04</ele>
        <time>2015-10-10T09:33:22Z</time>
      </trkpt>
      <trkpt lat="44.7778" lon="4.20601">
        <ele>1182.08</ele>
        <time>2015-10-10T09:33:42Z</time>
      </trkpt>
      <trkpt lat="44.7778" lon="4.20614">
        <ele>1182.08</ele>
        <time>2015-10-10T09:34:05Z</time>
      </trkpt>
      <trkpt lat="44.77783" lon="4.20644">
        <ele>1180.16</ele>
        <time>2015-10-10T09:34:32Z</time>
      </trkpt>
      <trkpt lat="44.77788" lon="4.20675">
        <ele>1178.23</ele>
        <time>2015-10-10T09:34:55Z</time>
      </trkpt>
      <trkpt lat="44.77777" lon="4.20658">
        <ele>1177.75</ele>
        <time>2015-10-10T09:35:13Z</time>
      </trkpt>
      <trkpt lat="44.77758" lon="4.20634">
        <ele>1177.27</ele>
        <time>2015-10-10T09:35:37Z</time>
      </trkpt>
      <trkpt lat="44.77737" lon="4.20625">
        <ele>1176.79</ele>
        <time>2015-10-10T09:35:59Z</time>
      </trkpt>
      <trkpt lat="44.77717" lon="4.2062">
        <ele>1175.83</ele>
        <time>2015-10-10T09:36:20Z</time>
      </trkpt>
      <trkpt lat="44.77701" lon="4.20602">
        <ele>1174.87</ele>
        <time>2015-10-10T09:36:42Z</time>
      </trkpt>
      <trkpt lat="44.77689" lon="4.2058">
        <ele>1173.43</ele>
        <time>2015-10-10T09:37:05Z</time>
      </trkpt>
      <trkpt lat="44.77688" lon="4.20563">
        <ele>1172.47</ele>
        <time>2015-10-10T09:37:19Z</time>
      </trkpt>
      <trkpt lat="44.77677" lon="4.20531">
        <ele>1171.02</ele>
        <time>2015-10-10T09:37:42Z</time>
      </trkpt>
      <trkpt lat="44.77657" lon="4.20506">
        <ele>1169.58</ele>
        <time>2015-10-10T09:38:06Z</time>
      </trkpt>
      <trkpt lat="44.77637" lon="4.2048">
        <ele>1169.1</ele>
        <time>2015-10-10T09:38:32Z</time>
      </trkpt>
      <trkpt lat="44.77614" lon="4.20451">
        <ele>1168.62</ele>
        <time>2015-10-10T09:39:01Z</time>
      </trkpt>
      <trkpt lat="44.77594" lon="4.20425">
        <ele>1168.14</ele>
        <time>2015-10-10T09:39:26Z</time>
      </trkpt>
      <trkpt lat="44.7758" lon="4.20406">
        <ele>1167.66</ele>
        <time>2015-10-10T09:39:45Z</time>
      </trkpt>
      <trkpt lat="44.7756" lon="4.2038">
        <ele>1167.66</ele>
        <time>2015-10-10T09:40:10Z</time>
      </trkpt>
      <trkpt lat="44.77536" lon="4.20357">
        <ele>1167.18</ele>
        <time>2015-10-10T09:40:37Z</time>
      </trkpt>
      <trkpt lat="44.77535" lon="4.20357">
        <ele>1167.18</ele>
        <time>2015-10-10T09:40:38Z</time>
      </trkpt>
      <trkpt lat="44.77514" lon="4.20368">
        <ele>1166.7</ele>
        <time>2015-10-10T09:41:00Z</time>
      </trkpt>
      <trkpt lat="44.77511" lon="4.20376">
        <ele>1166.22</ele>
        <time>2015-10-10T09:41:14Z</time>
      </trkpt>
      <trkpt lat="44.77506" lon="4.20379">
        <ele>1166.22</ele>
        <time>2015-10-10T09:41:30Z</time>
      </trkpt>
      <trkpt lat="44.77501" lon="4.20385">
        <ele>1165.74</ele>
        <time>2015-10-10T09:41:42Z</time>
      </trkpt>
      <trkpt lat="44.77486" lon="4.20396">
        <ele>1165.74</ele>
        <time>2015-10-10T09:41:58Z</time>
      </trkpt>
      <trkpt lat="44.77461" lon="4.20386">
        <ele>1165.74</ele>
        <time>2015-10-10T09:42:21Z</time>
      </trkpt>
      <trkpt lat="44.77438" lon="4.20374">
        <ele>1166.7</ele>
        <time>2015-10-10T09:42:44Z</time>
      </trkpt>
      <trkpt lat="44.77416" lon="4.20361">
        <ele>1166.7</ele>
        <time>2015-10-10T09:43:06Z</time>
      </trkpt>
      <trkpt lat="44.77397" lon="4.20357">
        <ele>1167.66</ele>
        <time>2015-10-10T09:43:28Z</time>
      </trkpt>
      <trkpt lat="44.77399" lon="4.2036">
        <ele>1167.66</ele>
        <time>2015-10-10T09:43:46Z</time>
      </trkpt>
      <trkpt lat="44.77398" lon="4.20363">
        <ele>1167.66</ele>
        <time>2015-10-10T09:44:14Z</time>
      </trkpt>
      <trkpt lat="44.77398" lon="4.20374">
        <ele>1167.66</ele>
        <time>2015-10-10T09:44:27Z</time>
      </trkpt>
      <trkpt lat="44.77397" lon="4.20399">
        <ele>1169.58</ele>
        <time>2015-10-10T09:44:48Z</time>
      </trkpt>
      <trkpt lat="44.77395" lon="4.20407">
        <ele>1170.54</ele>
        <time>2015-10-10T09:44:55Z</time>
      </trkpt>
      <trkpt lat="44.77385" lon="4.20426">
        <ele>1171.5</ele>
        <time>2015-10-10T09:45:14Z</time>
      </trkpt>
      <trkpt lat="44.7737" lon="4.20443">
        <ele>1173.91</ele>
        <time>2015-10-10T09:45:35Z</time>
      </trkpt>
      <trkpt lat="44.77352" lon="4.20466">
        <ele>1176.31</ele>
        <time>2015-10-10T09:46:01Z</time>
      </trkpt>
      <trkpt lat="44.77336" lon="4.20485">
        <ele>1178.71</ele>
        <time>2015-10-10T09:46:22Z</time>
      </trkpt>
      <trkpt lat="44.77319" lon="4.20498">
        <ele>1180.16</ele>
        <time>2015-10-10T09:46:41Z</time>
      </trkpt>
      <trkpt lat="44.77299" lon="4.20509">
        <ele>1182.56</ele>
        <time>2015-10-10T09:47:03Z</time>
      </trkpt>
      <trkpt lat="44.7728" lon="4.20513">
        <ele>1184.96</ele>
        <time>2015-10-10T09:47:27Z</time>
      </trkpt>
      <trkpt lat="44.77264" lon="4.20517">
        <ele>1186.4</ele>
        <time>2015-10-10T09:47:47Z</time>
      </trkpt>
      <trkpt lat="44.77242" lon="4.20518">
        <ele>1188.33</ele>
        <time>2015-10-10T09:48:11Z</time>
      </trkpt>
      <trkpt lat="44.77225" lon="4.20521">
        <ele>1189.77</ele>
        <time>2015-10-10T09:48:31Z</time>
      </trkpt>
      <trkpt lat="44.77202" lon="4.20515">
        <ele>1190.73</ele>
        <time>2015-10-10T09:48:51Z</time>
      </trkpt>
      <trkpt lat="44.77181" lon="4.20518">
        <ele>1192.17</ele>
        <time>2015-10-10T09:49:11Z</time>
      </trkpt>
      <trkpt lat="44.77158" lon="4.20527">
        <ele>1193.13</ele>
        <time>2015-10-10T09:49:33Z</time>
      </trkpt>
      <trkpt lat="44.77134" lon="4.20538">
        <ele>1195.06</ele>
        <time>2015-10-10T09:49:55Z</time>
      </trkpt>
      <trkpt lat="44.77116" lon="4.20547">
        <ele>1196.5</ele>
        <time>2015-10-10T09:50:15Z</time>
      </trkpt>
      <trkpt lat="44.77098" lon="4.20554">
        <ele>1197.94</ele>
        <time>2015-10-10T09:50:33Z</time>
      </trkpt>
      <trkpt lat="44.77091" lon="4.20556">
        <ele>1197.94</ele>
        <time>2015-10-10T09:50:39Z</time>
      </trkpt>
      <trkpt lat="44.77066" lon="4.20558">
        <ele>1198.9</ele>
        <time>2015-10-10T09:51:03Z</time>
      </trkpt>
      <trkpt lat="44.77054" lon="4.20558">
        <ele>1199.38</ele>
        <time>2015-10-10T09:51:21Z</time>
      </trkpt>
      <trkpt lat="44.77053" lon="4.2056">
        <ele>1200.82</ele>
        <time>2015-10-10T09:51:38Z</time>
      </trkpt>
      <trkpt lat="44.7705" lon="4.20563">
        <ele>1199.86</ele>
        <time>2015-10-10T09:51:59Z</time>
      </trkpt>
      <trkpt lat="44.77051" lon="4.20563">
        <ele>1199.86</ele>
        <time>2015-10-10T09:52:26Z</time>
      </trkpt>
      <trkpt lat="44.77049" lon="4.20555">
        <ele>1199.86</ele>
        <time>2015-10-10T09:52:50Z</time>
      </trkpt>
      <trkpt lat="44.77054" lon="4.20561">
        <ele>1199.86</ele>
        <time>2015-10-10T09:53:14Z</time>
      </trkpt>
      <trkpt lat="44.77052" lon="4.20559">
        <ele>1199.86</ele>
        <time>2015-10-10T09:53:40Z</time>
      </trkpt>
      <trkpt lat="44.77049" lon="4.20559">
        <ele>1199.38</ele>
        <time>2015-10-10T09:54:05Z</time>
      </trkpt>
      <trkpt lat="44.77048" lon="4.20558">
        <ele>1199.86</ele>
        <time>2015-10-10T09:54:29Z</time>
      </trkpt>
      <trkpt lat="44.77044" lon="4.20557">
        <ele>1199.86</ele>
        <time>2015-10-10T09:54:52Z</time>
      </trkpt>
      <trkpt lat="44.77031" lon="4.20546">
        <ele>1199.86</ele>
        <time>2015-10-10T09:55:09Z</time>
      </trkpt>
      <trkpt lat="44.77014" lon="4.20533">
        <ele>1200.82</ele>
        <time>2015-10-10T09:55:28Z</time>
      </trkpt>
      <trkpt lat="44.76997" lon="4.20517">
        <ele>1201.79</ele>
        <time>2015-10-10T09:55:49Z</time>
      </trkpt>
      <trkpt lat="44.76981" lon="4.20496">
        <ele>1203.23</ele>
        <time>2015-10-10T09:56:09Z</time>
      </trkpt>
      <trkpt lat="44.76966" lon="4.20474">
        <ele>1204.67</ele>
        <time>2015-10-10T09:56:29Z</time>
      </trkpt>
      <trkpt lat="44.76952" lon="4.20452">
        <ele>1206.11</ele>
        <time>2015-10-10T09:56:48Z</time>
      </trkpt>
      <trkpt lat="44.76943" lon="4.20441">
        <ele>1206.59</ele>
        <time>2015-10-10T09:57:08Z</time>
      </trkpt>
      <trkpt lat="44.76937" lon="4.20429">
        <ele>1206.59</ele>
        <time>2015-10-10T09:57:25Z</time>
      </trkpt>
      <trkpt lat="44.76925" lon="4.20413">
        <ele>1207.55</ele>
        <time>2015-10-10T09:57:43Z</time>
      </trkpt>
      <trkpt lat="44.76915" lon="4.20401">
        <ele>1208.03</ele>
        <time>2015-10-10T09:58:00Z</time>
      </trkpt>
      <trkpt lat="44.76907" lon="4.20389">
        <ele>1208.51</ele>
        <time>2015-10-10T09:58:17Z</time>
      </trkpt>
      <trkpt lat="44.76889" lon="4.20361">
        <ele>1209.48</ele>
        <time>2015-10-10T09:58:34Z</time>
      </trkpt>
      <trkpt lat="44.76881" lon="4.20357">
        <ele>1209.96</ele>
        <time>2015-10-10T09:58:48Z</time>
      </trkpt>
      <trkpt lat="44.76869" lon="4.20345">
        <ele>1210.92</ele>
        <time>2015-10-10T09:59:03Z</time>
      </trkpt>
      <trkpt lat="44.76853" lon="4.2034">
        <ele>1211.4</ele>
        <time>2015-10-10T09:59:15Z</time>
      </trkpt>
      <trkpt lat="44.7683" lon="4.20349">
        <ele>1210.92</ele>
        <time>2015-10-10T09:59:36Z</time>
      </trkpt>
      <trkpt lat="44.76821" lon="4.20355">
        <ele>1209.96</ele>
        <time>2015-10-10T09:59:47Z</time>
      </trkpt>
      <trkpt lat="44.7681" lon="4.20366">
        <ele>1208.51</ele>
        <time>2015-10-10T10:00:01Z</time>
      </trkpt>
      <trkpt lat="44.76795" lon="4.20383">
        <ele>1207.07</ele>
        <time>2015-10-10T10:00:18Z</time>
      </trkpt>
      <trkpt lat="44.76787" lon="4.204">
        <ele>1206.59</ele>
        <time>2015-10-10T10:00:32Z</time>
      </trkpt>
      <trkpt lat="44.76785" lon="4.20425">
        <ele>1206.59</ele>
        <time>2015-10-10T10:00:48Z</time>
      </trkpt>
      <trkpt lat="44.76788" lon="4.20438">
        <ele>1207.55</ele>
        <time>2015-10-10T10:00:57Z</time>
      </trkpt>
      <trkpt lat="44.76786" lon="4.20473">
        <ele>1208.51</ele>
        <time>2015-10-10T10:01:16Z</time>
      </trkpt>
      <trkpt lat="44.76775" lon="4.20498">
        <ele>1209.96</ele>
        <time>2015-10-10T10:01:35Z</time>
      </trkpt>
      <trkpt lat="44.76764" lon="4.20519">
        <ele>1210.44</ele>
        <time>2015-10-10T10:01:54Z</time>
      </trkpt>
      <trkpt lat="44.76757" lon="4.20544">
        <ele>1211.88</ele>
        <time>2015-10-10T10:02:11Z</time>
      </trkpt>
      <trkpt lat="44.76757" lon="4.20568">
        <ele>1211.88</ele>
        <time>2015-10-10T10:02:30Z</time>
      </trkpt>
      <trkpt lat="44.76759" lon="4.20572">
        <ele>1212.36</ele>
        <time>2015-10-10T10:02:33Z</time>
      </trkpt>
      <trkpt lat="44.76768" lon="4.20605">
        <ele>1213.32</ele>
        <time>2015-10-10T10:02:52Z</time>
      </trkpt>
      <trkpt lat="44.76778" lon="4.20635">
        <ele>1213.8</ele>
        <time>2015-10-10T10:03:13Z</time>
      </trkpt>
      <trkpt lat="44.76783" lon="4.20651">
        <ele>1214.76</ele>
        <time>2015-10-10T10:03:31Z</time>
      </trkpt>
      <trkpt lat="44.76783" lon="4.20652">
        <ele>1214.76</ele>
        <time>2015-10-10T10:03:33Z</time>
      </trkpt>
      <trkpt lat="44.76786" lon="4.20657">
        <ele>1215.24</ele>
        <time>2015-10-10T10:03:38Z</time>
      </trkpt>
      <trkpt lat="44.76791" lon="4.20682">
        <ele>1216.69</ele>
        <time>2015-10-10T10:03:56Z</time>
      </trkpt>
      <trkpt lat="44.76792" lon="4.20703">
        <ele>1217.17</ele>
        <time>2015-10-10T10:04:11Z</time>
      </trkpt>
      <trkpt lat="44.76786" lon="4.2073">
        <ele>1217.65</ele>
        <time>2015-10-10T10:04:31Z</time>
      </trkpt>
      <trkpt lat="44.76776" lon="4.20755">
        <ele>1219.09</ele>
        <time>2015-10-10T10:04:50Z</time>
      </trkpt>
      <trkpt lat="44.76765" lon="4.20775">
        <ele>1219.57</ele>
        <time>2015-10-10T10:05:08Z</time>
      </trkpt>
      <trkpt lat="44.76754" lon="4.20792">
        <ele>1220.53</ele>
        <time>2015-10-10T10:05:24Z</time>
      </trkpt>
      <trkpt lat="44.76745" lon="4.20809">
        <ele>1221.49</ele>
        <time>2015-10-10T10:05:39Z</time>
      </trkpt>
      <trkpt lat="44.76744" lon="4.20811">
        <ele>1221.49</ele>
        <time>2015-10-10T10:05:41Z</time>
      </trkpt>
      <trkpt lat="44.76732" lon="4.20832">
        <ele>1222.45</ele>
        <time>2015-10-10T10:06:02Z</time>
      </trkpt>
      <trkpt lat="44.76721" lon="4.20848">
        <ele>1223.42</ele>
        <time>2015-10-10T10:06:19Z</time>
      </trkpt>
      <trkpt lat="44.76707" lon="4.20865">
        <ele>1224.86</ele>
        <time>2015-10-10T10:06:38Z</time>
      </trkpt>
      <trkpt lat="44.76701" lon="4.2087">
        <ele>1225.34</ele>
        <time>2015-10-10T10:06:46Z</time>
      </trkpt>
      <trkpt lat="44.76689" lon="4.20887">
        <ele>1225.82</ele>
        <time>2015-10-10T10:07:03Z</time>
      </trkpt>
      <trkpt lat="44.76675" lon="4.20908">
        <ele>1226.78</ele>
        <time>2015-10-10T10:07:22Z</time>
      </trkpt>
      <trkpt lat="44.76662" lon="4.20927">
        <ele>1227.26</ele>
        <time>2015-10-10T10:07:41Z</time>
      </trkpt>
      <trkpt lat="44.76647" lon="4.20949">
        <ele>1228.22</ele>
        <time>2015-10-10T10:08:01Z</time>
      </trkpt>
      <trkpt lat="44.76634" lon="4.20966">
        <ele>1228.22</ele>
        <time>2015-10-10T10:08:19Z</time>
      </trkpt>
      <trkpt lat="44.76621" lon="4.20978">
        <ele>1228.7</ele>
        <time>2015-10-10T10:08:36Z</time>
      </trkpt>
      <trkpt lat="44.76605" lon="4.20992">
        <ele>1228.7</ele>
        <time>2015-10-10T10:08:55Z</time>
      </trkpt>
      <trkpt lat="44.76587" lon="4.21003">
        <ele>1228.22</ele>
        <time>2015-10-10T10:09:12Z</time>
      </trkpt>
      <trkpt lat="44.76573" lon="4.21015">
        <ele>1228.22</ele>
        <time>2015-10-10T10:09:28Z</time>
      </trkpt>
      <trkpt lat="44.7656" lon="4.21026">
        <ele>1228.22</ele>
        <time>2015-10-10T10:09:43Z</time>
      </trkpt>
      <trkpt lat="44.76547" lon="4.2104">
        <ele>1228.22</ele>
        <time>2015-10-10T10:09:59Z</time>
      </trkpt>
      <trkpt lat="44.76536" lon="4.21045">
        <ele>1229.18</ele>
        <time>2015-10-10T10:10:17Z</time>
      </trkpt>
      <trkpt lat="44.76536" lon="4.21042">
        <ele>1228.7</ele>
        <time>2015-10-10T10:10:38Z</time>
      </trkpt>
      <trkpt lat="44.76535" lon="4.21042">
        <ele>1228.7</ele>
        <time>2015-10-10T10:11:09Z</time>
      </trkpt>
      <trkpt lat="44.76536" lon="4.21044">
        <ele>1228.7</ele>
        <time>2015-10-10T10:11:41Z</time>
      </trkpt>
      <trkpt lat="44.76534" lon="4.21044">
        <ele>1228.7</ele>
        <time>2015-10-10T10:12:08Z</time>
      </trkpt>
      <trkpt lat="44.76535" lon="4.2105">
        <ele>1228.7</ele>
        <time>2015-10-10T10:12:27Z</time>
      </trkpt>
      <trkpt lat="44.76537" lon="4.21054">
        <ele>1228.7</ele>
        <time>2015-10-10T10:12:48Z</time>
      </trkpt>
      <trkpt lat="44.76534" lon="4.21058">
        <ele>1228.7</ele>
        <time>2015-10-10T10:13:08Z</time>
      </trkpt>
      <trkpt lat="44.76535" lon="4.2106">
        <ele>1228.7</ele>
        <time>2015-10-10T10:13:39Z</time>
      </trkpt>
      <trkpt lat="44.76537" lon="4.21058">
        <ele>1229.18</ele>
        <time>2015-10-10T10:14:06Z</time>
      </trkpt>
      <trkpt lat="44.76534" lon="4.21055">
        <ele>1229.66</ele>
        <time>2015-10-10T10:14:25Z</time>
      </trkpt>
      <trkpt lat="44.76533" lon="4.21054">
        <ele>1230.14</ele>
        <time>2015-10-10T10:14:47Z</time>
      </trkpt>
      <trkpt lat="44.76533" lon="4.21051">
        <ele>1229.18</ele>
        <time>2015-10-10T10:15:13Z</time>
      </trkpt>
      <trkpt lat="44.76533" lon="4.21048">
        <ele>1229.18</ele>
        <time>2015-10-10T10:15:44Z</time>
      </trkpt>
      <trkpt lat="44.76532" lon="4.2105">
        <ele>1229.18</ele>
        <time>2015-10-10T10:16:12Z</time>
      </trkpt>
      <trkpt lat="44.76531" lon="4.21053">
        <ele>1229.18</ele>
        <time>2015-10-10T10:16:33Z</time>
      </trkpt>
      <trkpt lat="44.76534" lon="4.21056">
        <ele>1229.18</ele>
        <time>2015-10-10T10:16:57Z</time>
      </trkpt>
      <trkpt lat="44.76536" lon="4.21058">
        <ele>1229.18</ele>
        <time>2015-10-10T10:17:21Z</time>
      </trkpt>
      <trkpt lat="44.76534" lon="4.21058">
        <ele>1229.18</ele>
        <time>2015-10-10T10:17:46Z</time>
      </trkpt>
      <trkpt lat="44.76533" lon="4.21055">
        <ele>1229.18</ele>
        <time>2015-10-10T10:18:11Z</time>
      </trkpt>
      <trkpt lat="44.76534" lon="4.21057">
        <ele>1229.18</ele>
        <time>2015-10-10T10:18:40Z</time>
      </trkpt>
      <trkpt lat="44.76533" lon="4.2106">
        <ele>1229.18</ele>
        <time>2015-10-10T10:19:00Z</time>
      </trkpt>
      <trkpt lat="44.76526" lon="4.21064">
        <ele>1229.18</ele>
        <time>2015-10-10T10:19:24Z</time>
      </trkpt>
      <trkpt lat="44.76509" lon="4.21081">
        <ele>1229.18</ele>
        <time>2015-10-10T10:19:49Z</time>
      </trkpt>
      <trkpt lat="44.76492" lon="4.21096">
        <ele>1228.7</ele>
        <time>2015-10-10T10:20:11Z</time>
      </trkpt>
      <trkpt lat="44.76482" lon="4.21137">
        <ele>1227.74</ele>
        <time>2015-10-10T10:20:37Z</time>
      </trkpt>
      <trkpt lat="44.76482" lon="4.21138">
        <ele>1227.74</ele>
        <time>2015-10-10T10:20:38Z</time>
      </trkpt>
      <trkpt lat="44.76478" lon="4.21171">
        <ele>1226.78</ele>
        <time>2015-10-10T10:21:01Z</time>
      </trkpt>
      <trkpt lat="44.7647" lon="4.21194">
        <ele>1226.3</ele>
        <time>2015-10-10T10:21:22Z</time>
      </trkpt>
      <trkpt lat="44.76472" lon="4.212">
        <ele>1226.3</ele>
        <time>2015-10-10T10:21:41Z</time>
      </trkpt>
      <trkpt lat="44.76479" lon="4.21204">
        <ele>1225.82</ele>
        <time>2015-10-10T10:21:55Z</time>
      </trkpt>
      <trkpt lat="44.76479" lon="4.21196">
        <ele>1225.82</ele>
        <time>2015-10-10T10:22:32Z</time>
      </trkpt>
      <trkpt lat="44.76478" lon="4.21196">
        <ele>1225.82</ele>
        <time>2015-10-10T10:23:06Z</time>
      </trkpt>
      <trkpt lat="44.76479" lon="4.21204">
        <ele>1225.82</ele>
        <time>2015-10-10T10:23:34Z</time>
      </trkpt>
      <trkpt lat="44.76481" lon="4.21207">
        <ele>1225.82</ele>
        <time>2015-10-10T10:24:14Z</time>
      </trkpt>
      <trkpt lat="44.76481" lon="4.21194">
        <ele>1225.82</ele>
        <time>2015-10-10T10:24:33Z</time>
      </trkpt>
      <trkpt lat="44.7648" lon="4.21193">
        <ele>1227.26</ele>
        <time>2015-10-10T10:24:41Z</time>
      </trkpt>
      <trkpt lat="44.7648" lon="4.21183">
        <ele>1226.3</ele>
        <time>2015-10-10T10:25:09Z</time>
      </trkpt>
      <trkpt lat="44.76478" lon="4.21182">
        <ele>1226.3</ele>
        <time>2015-10-10T10:25:36Z</time>
      </trkpt>
      <trkpt lat="44.76475" lon="4.21182">
        <ele>1226.3</ele>
        <time>2015-10-10T10:26:04Z</time>
      </trkpt>
      <trkpt lat="44.76476" lon="4.21182">
        <ele>1225.82</ele>
        <time>2015-10-10T10:26:39Z</time>
      </trkpt>
      <trkpt lat="44.76474" lon="4.2118">
        <ele>1225.82</ele>
        <time>2015-10-10T10:27:10Z</time>
      </trkpt>
      <trkpt lat="44.76473" lon="4.21188">
        <ele>1225.82</ele>
        <time>2015-10-10T10:27:37Z</time>
      </trkpt>
      <trkpt lat="44.76467" lon="4.21197">
        <ele>1225.82</ele>
        <time>2015-10-10T10:28:03Z</time>
      </trkpt>
      <trkpt lat="44.76463" lon="4.21199">
        <ele>1225.82</ele>
        <time>2015-10-10T10:28:22Z</time>
      </trkpt>
      <trkpt lat="44.76462" lon="4.21201">
        <ele>1225.82</ele>
        <time>2015-10-10T10:28:46Z</time>
      </trkpt>
      <trkpt lat="44.76452" lon="4.21183">
        <ele>1228.22</ele>
        <time>2015-10-10T10:29:08Z</time>
      </trkpt>
      <trkpt lat="44.76439" lon="4.21167">
        <ele>1228.7</ele>
        <time>2015-10-10T10:29:31Z</time>
      </trkpt>
      <trkpt lat="44.76431" lon="4.21154">
        <ele>1230.14</ele>
        <time>2015-10-10T10:29:51Z</time>
      </trkpt>
      <trkpt lat="44.76427" lon="4.21146">
        <ele>1230.14</ele>
        <time>2015-10-10T10:30:14Z</time>
      </trkpt>
      <trkpt lat="44.76427" lon="4.21148">
        <ele>1229.66</ele>
        <time>2015-10-10T10:30:18Z</time>
      </trkpt>
      <trkpt lat="44.76427" lon="4.21148">
        <ele>1235.43</ele>
        <time>2015-10-10T11:49:21Z</time>
      </trkpt>
      <trkpt lat="44.76425" lon="4.21134">
        <ele>1235.43</ele>
        <time>2015-10-10T11:49:22Z</time>
      </trkpt>
      <trkpt lat="44.76428" lon="4.21134">
        <ele>1233.99</ele>
        <time>2015-10-10T11:49:45Z</time>
      </trkpt>
      <trkpt lat="44.76432" lon="4.21152">
        <ele>1233.99</ele>
        <time>2015-10-10T11:50:07Z</time>
      </trkpt>
      <trkpt lat="44.76445" lon="4.21159">
        <ele>1233.03</ele>
        <time>2015-10-10T11:50:31Z</time>
      </trkpt>
      <trkpt lat="44.76443" lon="4.21164">
        <ele>1233.03</ele>
        <time>2015-10-10T11:50:52Z</time>
      </trkpt>
      <trkpt lat="44.76425" lon="4.21176">
        <ele>1232.55</ele>
        <time>2015-10-10T11:51:15Z</time>
      </trkpt>
      <trkpt lat="44.76423" lon="4.21177">
        <ele>1232.55</ele>
        <time>2015-10-10T11:51:40Z</time>
      </trkpt>
      <trkpt lat="44.76428" lon="4.2117">
        <ele>1232.55</ele>
        <time>2015-10-10T11:52:08Z</time>
      </trkpt>
      <trkpt lat="44.76425" lon="4.21177">
        <ele>1232.55</ele>
        <time>2015-10-10T11:52:38Z</time>
      </trkpt>
      <trkpt lat="44.76441" lon="4.21186">
        <ele>1232.55</ele>
        <time>2015-10-10T11:53:01Z</time>
      </trkpt>
      <trkpt lat="44.7646" lon="4.21194">
        <ele>1231.59</ele>
        <time>2015-10-10T11:53:24Z</time>
      </trkpt>
      <trkpt lat="44.7647" lon="4.21199">
        <ele>1231.11</ele>
        <time>2015-10-10T11:53:45Z</time>
      </trkpt>
      <trkpt lat="44.76472" lon="4.21198">
        <ele>1230.62</ele>
        <time>2015-10-10T11:54:09Z</time>
      </trkpt>
      <trkpt lat="44.76473" lon="4.21198">
        <ele>1230.62</ele>
        <time>2015-10-10T11:54:38Z</time>
      </trkpt>
      <trkpt lat="44.76475" lon="4.21205">
        <ele>1230.62</ele>
        <time>2015-10-10T11:55:10Z</time>
      </trkpt>
      <trkpt lat="44.76481" lon="4.21205">
        <ele>1230.62</ele>
        <time>2015-10-10T11:55:27Z</time>
      </trkpt>
      <trkpt lat="44.76484" lon="4.21205">
        <ele>1230.14</ele>
        <time>2015-10-10T11:56:02Z</time>
      </trkpt>
      <trkpt lat="44.76489" lon="4.21213">
        <ele>1230.14</ele>
        <time>2015-10-10T11:56:24Z</time>
      </trkpt>
      <trkpt lat="44.76499" lon="4.21227">
        <ele>1230.14</ele>
        <time>2015-10-10T11:56:41Z</time>
      </trkpt>
      <trkpt lat="44.76522" lon="4.21237">
        <ele>1230.14</ele>
        <time>2015-10-10T11:57:06Z</time>
      </trkpt>
      <trkpt lat="44.76527" lon="4.2124">
        <ele>1230.14</ele>
        <time>2015-10-10T11:57:27Z</time>
      </trkpt>
      <trkpt lat="44.7653" lon="4.21246">
        <ele>1230.14</ele>
        <time>2015-10-10T11:57:46Z</time>
      </trkpt>
      <trkpt lat="44.76542" lon="4.2127">
        <ele>1232.07</ele>
        <time>2015-10-10T11:58:12Z</time>
      </trkpt>
      <trkpt lat="44.76554" lon="4.2129">
        <ele>1233.03</ele>
        <time>2015-10-10T11:58:34Z</time>
      </trkpt>
      <trkpt lat="44.76568" lon="4.21313">
        <ele>1234.95</ele>
        <time>2015-10-10T11:58:59Z</time>
      </trkpt>
      <trkpt lat="44.7658" lon="4.21333">
        <ele>1236.39</ele>
        <time>2015-10-10T11:59:22Z</time>
      </trkpt>
      <trkpt lat="44.766" lon="4.2135">
        <ele>1238.8</ele>
        <time>2015-10-10T11:59:50Z</time>
      </trkpt>
      <trkpt lat="44.76608" lon="4.21359">
        <ele>1239.76</ele>
        <time>2015-10-10T12:00:12Z</time>
      </trkpt>
      <trkpt lat="44.76615" lon="4.21365">
        <ele>1240.72</ele>
        <time>2015-10-10T12:00:37Z</time>
      </trkpt>
      <trkpt lat="44.76631" lon="4.2138">
        <ele>1241.68</ele>
        <time>2015-10-10T12:01:00Z</time>
      </trkpt>
      <trkpt lat="44.76647" lon="4.21402">
        <ele>1241.68</ele>
        <time>2015-10-10T12:01:24Z</time>
      </trkpt>
      <trkpt lat="44.76666" lon="4.21419">
        <ele>1242.16</ele>
        <time>2015-10-10T12:01:48Z</time>
      </trkpt>
      <trkpt lat="44.76691" lon="4.21432">
        <ele>1242.16</ele>
        <time>2015-10-10T12:02:14Z</time>
      </trkpt>
      <trkpt lat="44.76713" lon="4.21451">
        <ele>1242.64</ele>
        <time>2015-10-10T12:02:41Z</time>
      </trkpt>
      <trkpt lat="44.7673" lon="4.21477">
        <ele>1241.68</ele>
        <time>2015-10-10T12:03:07Z</time>
      </trkpt>
      <trkpt lat="44.76749" lon="4.21489">
        <ele>1240.72</ele>
        <time>2015-10-10T12:03:29Z</time>
      </trkpt>
      <trkpt lat="44.76756" lon="4.21494">
        <ele>1240.24</ele>
        <time>2015-10-10T12:03:38Z</time>
      </trkpt>
      <trkpt lat="44.76774" lon="4.21504">
        <ele>1238.32</ele>
        <time>2015-10-10T12:04:00Z</time>
      </trkpt>
      <trkpt lat="44.76789" lon="4.21513">
        <ele>1236.39</ele>
        <time>2015-10-10T12:04:20Z</time>
      </trkpt>
      <trkpt lat="44.76806" lon="4.21516">
        <ele>1233.99</ele>
        <time>2015-10-10T12:04:42Z</time>
      </trkpt>
      <trkpt lat="44.76824" lon="4.21522">
        <ele>1233.03</ele>
        <time>2015-10-10T12:05:07Z</time>
      </trkpt>
      <trkpt lat="44.76824" lon="4.21524">
        <ele>1233.03</ele>
        <time>2015-10-10T12:05:39Z</time>
      </trkpt>
      <trkpt lat="44.76824" lon="4.21524">
        <ele>1233.03</ele>
        <time>2015-10-10T12:05:58Z</time>
      </trkpt>
      <trkpt lat="44.76825" lon="4.21525">
        <ele>1233.03</ele>
        <time>2015-10-10T12:06:27Z</time>
      </trkpt>
      <trkpt lat="44.76846" lon="4.21521">
        <ele>1234.47</ele>
        <time>2015-10-10T12:06:49Z</time>
      </trkpt>
      <trkpt lat="44.76847" lon="4.21521">
        <ele>1234.47</ele>
        <time>2015-10-10T12:06:50Z</time>
      </trkpt>
      <trkpt lat="44.76866" lon="4.21515">
        <ele>1235.43</ele>
        <time>2015-10-10T12:07:13Z</time>
      </trkpt>
      <trkpt lat="44.76889" lon="4.21508">
        <ele>1237.35</ele>
        <time>2015-10-10T12:07:38Z</time>
      </trkpt>
      <trkpt lat="44.76899" lon="4.21502">
        <ele>1238.32</ele>
        <time>2015-10-10T12:07:54Z</time>
      </trkpt>
      <trkpt lat="44.7691" lon="4.21494">
        <ele>1239.28</ele>
        <time>2015-10-10T12:08:06Z</time>
      </trkpt>
      <trkpt lat="44.76933" lon="4.21472">
        <ele>1240.72</ele>
        <time>2015-10-10T12:08:31Z</time>
      </trkpt>
      <trkpt lat="44.76955" lon="4.21454">
        <ele>1242.16</ele>
        <time>2015-10-10T12:08:55Z</time>
      </trkpt>
      <trkpt lat="44.76983" lon="4.21444">
        <ele>1243.6</ele>
        <time>2015-10-10T12:09:22Z</time>
      </trkpt>
      <trkpt lat="44.77002" lon="4.2144">
        <ele>1245.04</ele>
        <time>2015-10-10T12:09:41Z</time>
      </trkpt>
      <trkpt lat="44.77032" lon="4.21439">
        <ele>1246.97</ele>
        <time>2015-10-10T12:10:09Z</time>
      </trkpt>
      <trkpt lat="44.77053" lon="4.21452">
        <ele>1247.45</ele>
        <time>2015-10-10T12:10:32Z</time>
      </trkpt>
      <trkpt lat="44.77073" lon="4.21473">
        <ele>1249.37</ele>
        <time>2015-10-10T12:10:57Z</time>
      </trkpt>
      <trkpt lat="44.77093" lon="4.21497">
        <ele>1251.29</ele>
        <time>2015-10-10T12:11:25Z</time>
      </trkpt>
      <trkpt lat="44.77116" lon="4.21518">
        <ele>1252.74</ele>
        <time>2015-10-10T12:11:52Z</time>
      </trkpt>
      <trkpt lat="44.77128" lon="4.21535">
        <ele>1254.18</ele>
        <time>2015-10-10T12:12:15Z</time>
      </trkpt>
      <trkpt lat="44.77129" lon="4.21541">
        <ele>1254.18</ele>
        <time>2015-10-10T12:12:43Z</time>
      </trkpt>
      <trkpt lat="44.77126" lon="4.21555">
        <ele>1256.1</ele>
        <time>2015-10-10T12:13:04Z</time>
      </trkpt>
      <trkpt lat="44.77128" lon="4.21557">
        <ele>1256.58</ele>
        <time>2015-10-10T12:13:27Z</time>
      </trkpt>
      <trkpt lat="44.77128" lon="4.21557">
        <ele>1256.58</ele>
        <time>2015-10-10T12:13:55Z</time>
      </trkpt>
      <trkpt lat="44.7713" lon="4.21559">
        <ele>1256.58</ele>
        <time>2015-10-10T12:14:17Z</time>
      </trkpt>
      <trkpt lat="44.77134" lon="4.21566">
        <ele>1256.58</ele>
        <time>2015-10-10T12:14:25Z</time>
      </trkpt>
      <trkpt lat="44.77142" lon="4.21583">
        <ele>1257.06</ele>
        <time>2015-10-10T12:14:42Z</time>
      </trkpt>
      <trkpt lat="44.77151" lon="4.216">
        <ele>1258.02</ele>
        <time>2015-10-10T12:15:00Z</time>
      </trkpt>
      <trkpt lat="44.77156" lon="4.21623">
        <ele>1258.02</ele>
        <time>2015-10-10T12:15:18Z</time>
      </trkpt>
      <trkpt lat="44.77156" lon="4.21639">
        <ele>1258.5</ele>
        <time>2015-10-10T12:15:34Z</time>
      </trkpt>
      <trkpt lat="44.77156" lon="4.21659">
        <ele>1258.98</ele>
        <time>2015-10-10T12:15:50Z</time>
      </trkpt>
      <trkpt lat="44.77162" lon="4.21684">
        <ele>1260.91</ele>
        <time>2015-10-10T12:16:10Z</time>
      </trkpt>
      <trkpt lat="44.77167" lon="4.21697">
        <ele>1261.39</ele>
        <time>2015-10-10T12:16:21Z</time>
      </trkpt>
      <trkpt lat="44.77178" lon="4.21725">
        <ele>1262.35</ele>
        <time>2015-10-10T12:16:42Z</time>
      </trkpt>
      <trkpt lat="44.77191" lon="4.21745">
        <ele>1262.83</ele>
        <time>2015-10-10T12:17:01Z</time>
      </trkpt>
      <trkpt lat="44.77204" lon="4.21764">
        <ele>1262.83</ele>
        <time>2015-10-10T12:17:19Z</time>
      </trkpt>
      <trkpt lat="44.77204" lon="4.21765">
        <ele>1263.31</ele>
        <time>2015-10-10T12:17:35Z</time>
      </trkpt>
      <trkpt lat="44.7721" lon="4.21778">
        <ele>1263.79</ele>
        <time>2015-10-10T12:17:52Z</time>
      </trkpt>
      <trkpt lat="44.77217" lon="4.21798">
        <ele>1265.23</ele>
        <time>2015-10-10T12:18:10Z</time>
      </trkpt>
      <trkpt lat="44.77221" lon="4.2182">
        <ele>1265.71</ele>
        <time>2015-10-10T12:18:27Z</time>
      </trkpt>
      <trkpt lat="44.77225" lon="4.21834">
        <ele>1266.67</ele>
        <time>2015-10-10T12:18:37Z</time>
      </trkpt>
      <trkpt lat="44.77228" lon="4.2184">
        <ele>1267.16</ele>
        <time>2015-10-10T12:18:43Z</time>
      </trkpt>
      <trkpt lat="44.77235" lon="4.21868">
        <ele>1267.64</ele>
        <time>2015-10-10T12:19:03Z</time>
      </trkpt>
      <trkpt lat="44.77235" lon="4.21874">
        <ele>1267.64</ele>
        <time>2015-10-10T12:19:07Z</time>
      </trkpt>
      <trkpt lat="44.77232" lon="4.21898">
        <ele>1267.64</ele>
        <time>2015-10-10T12:19:23Z</time>
      </trkpt>
      <trkpt lat="44.77228" lon="4.21927">
        <ele>1266.19</ele>
        <time>2015-10-10T12:19:42Z</time>
      </trkpt>
      <trkpt lat="44.77227" lon="4.21955">
        <ele>1266.19</ele>
        <time>2015-10-10T12:20:00Z</time>
      </trkpt>
      <trkpt lat="44.77227" lon="4.21957">
        <ele>1266.19</ele>
        <time>2015-10-10T12:20:01Z</time>
      </trkpt>
      <trkpt lat="44.7723" lon="4.21984">
        <ele>1266.19</ele>
        <time>2015-10-10T12:20:19Z</time>
      </trkpt>
      <trkpt lat="44.77232" lon="4.22008">
        <ele>1267.64</ele>
        <time>2015-10-10T12:20:36Z</time>
      </trkpt>
      <trkpt lat="44.77234" lon="4.22032">
        <ele>1268.6</ele>
        <time>2015-10-10T12:20:54Z</time>
      </trkpt>
      <trkpt lat="44.77236" lon="4.22057">
        <ele>1270.04</ele>
        <time>2015-10-10T12:21:12Z</time>
      </trkpt>
      <trkpt lat="44.77236" lon="4.22063">
        <ele>1270.04</ele>
        <time>2015-10-10T12:21:20Z</time>
      </trkpt>
      <trkpt lat="44.77237" lon="4.22077">
        <ele>1271</ele>
        <time>2015-10-10T12:21:32Z</time>
      </trkpt>
      <trkpt lat="44.77237" lon="4.22101">
        <ele>1272.44</ele>
        <time>2015-10-10T12:21:51Z</time>
      </trkpt>
      <trkpt lat="44.77237" lon="4.22128">
        <ele>1273.88</ele>
        <time>2015-10-10T12:22:12Z</time>
      </trkpt>
      <trkpt lat="44.7724" lon="4.22151">
        <ele>1275.33</ele>
        <time>2015-10-10T12:22:30Z</time>
      </trkpt>
      <trkpt lat="44.77239" lon="4.2216">
        <ele>1275.81</ele>
        <time>2015-10-10T12:22:45Z</time>
      </trkpt>
      <trkpt lat="44.7724" lon="4.22164">
        <ele>1276.29</ele>
        <time>2015-10-10T12:23:02Z</time>
      </trkpt>
      <trkpt lat="44.77241" lon="4.22181">
        <ele>1277.25</ele>
        <time>2015-10-10T12:23:17Z</time>
      </trkpt>
      <trkpt lat="44.77244" lon="4.222">
        <ele>1277.73</ele>
        <time>2015-10-10T12:23:32Z</time>
      </trkpt>
      <trkpt lat="44.77247" lon="4.22212">
        <ele>1278.21</ele>
        <time>2015-10-10T12:23:41Z</time>
      </trkpt>
      <trkpt lat="44.77248" lon="4.22228">
        <ele>1278.69</ele>
        <time>2015-10-10T12:23:57Z</time>
      </trkpt>
      <trkpt lat="44.77248" lon="4.22244">
        <ele>1279.65</ele>
        <time>2015-10-10T12:24:15Z</time>
      </trkpt>
      <trkpt lat="44.77247" lon="4.22268">
        <ele>1280.13</ele>
        <time>2015-10-10T12:24:34Z</time>
      </trkpt>
      <trkpt lat="44.77249" lon="4.22279">
        <ele>1280.61</ele>
        <time>2015-10-10T12:24:43Z</time>
      </trkpt>
      <trkpt lat="44.77249" lon="4.22299">
        <ele>1282.06</ele>
        <time>2015-10-10T12:25:00Z</time>
      </trkpt>
      <trkpt lat="44.77241" lon="4.2231">
        <ele>1282.54</ele>
        <time>2015-10-10T12:25:15Z</time>
      </trkpt>
      <trkpt lat="44.77243" lon="4.22326">
        <ele>1280.61</ele>
        <time>2015-10-10T12:25:31Z</time>
      </trkpt>
      <trkpt lat="44.77243" lon="4.22337">
        <ele>1279.17</ele>
        <time>2015-10-10T12:25:45Z</time>
      </trkpt>
      <trkpt lat="44.77241" lon="4.2235">
        <ele>1278.21</ele>
        <time>2015-10-10T12:25:58Z</time>
      </trkpt>
      <trkpt lat="44.77237" lon="4.22368">
        <ele>1277.25</ele>
        <time>2015-10-10T12:26:14Z</time>
      </trkpt>
      <trkpt lat="44.77238" lon="4.22393">
        <ele>1275.81</ele>
        <time>2015-10-10T12:26:31Z</time>
      </trkpt>
      <trkpt lat="44.7724" lon="4.22421">
        <ele>1274.85</ele>
        <time>2015-10-10T12:26:51Z</time>
      </trkpt>
      <trkpt lat="44.77241" lon="4.22447">
        <ele>1274.85</ele>
        <time>2015-10-10T12:27:09Z</time>
      </trkpt>
      <trkpt lat="44.77231" lon="4.22469">
        <ele>1273.88</ele>
        <time>2015-10-10T12:27:27Z</time>
      </trkpt>
      <trkpt lat="44.77225" lon="4.22498">
        <ele>1272.92</ele>
        <time>2015-10-10T12:27:48Z</time>
      </trkpt>
      <trkpt lat="44.77221" lon="4.22513">
        <ele>1271.96</ele>
        <time>2015-10-10T12:28:07Z</time>
      </trkpt>
      <trkpt lat="44.77222" lon="4.22529">
        <ele>1271</ele>
        <time>2015-10-10T12:28:22Z</time>
      </trkpt>
      <trkpt lat="44.77222" lon="4.22547">
        <ele>1270.52</ele>
        <time>2015-10-10T12:28:36Z</time>
      </trkpt>
      <trkpt lat="44.7722" lon="4.2256">
        <ele>1270.04</ele>
        <time>2015-10-10T12:28:45Z</time>
      </trkpt>
      <trkpt lat="44.77222" lon="4.22564">
        <ele>1270.04</ele>
        <time>2015-10-10T12:28:48Z</time>
      </trkpt>
      <trkpt lat="44.77223" lon="4.2257">
        <ele>1270.04</ele>
        <time>2015-10-10T12:28:53Z</time>
      </trkpt>
      <trkpt lat="44.77235" lon="4.2259">
        <ele>1268.12</ele>
        <time>2015-10-10T12:29:12Z</time>
      </trkpt>
      <trkpt lat="44.7725" lon="4.22607">
        <ele>1267.64</ele>
        <time>2015-10-10T12:29:31Z</time>
      </trkpt>
      <trkpt lat="44.77262" lon="4.22625">
        <ele>1267.16</ele>
        <time>2015-10-10T12:29:48Z</time>
      </trkpt>
      <trkpt lat="44.77266" lon="4.22631">
        <ele>1267.16</ele>
        <time>2015-10-10T12:29:56Z</time>
      </trkpt>
      <trkpt lat="44.77278" lon="4.22648">
        <ele>1267.16</ele>
        <time>2015-10-10T12:30:13Z</time>
      </trkpt>
      <trkpt lat="44.77293" lon="4.22666">
        <ele>1267.16</ele>
        <time>2015-10-10T12:30:32Z</time>
      </trkpt>
      <trkpt lat="44.77302" lon="4.2267">
        <ele>1266.19</ele>
        <time>2015-10-10T12:30:48Z</time>
      </trkpt>
      <trkpt lat="44.77314" lon="4.22686">
        <ele>1264.75</ele>
        <time>2015-10-10T12:31:06Z</time>
      </trkpt>
      <trkpt lat="44.77316" lon="4.22694">
        <ele>1264.75</ele>
        <time>2015-10-10T12:31:12Z</time>
      </trkpt>
      <trkpt lat="44.77318" lon="4.22702">
        <ele>1263.79</ele>
        <time>2015-10-10T12:31:19Z</time>
      </trkpt>
      <trkpt lat="44.77323" lon="4.22724">
        <ele>1262.35</ele>
        <time>2015-10-10T12:31:37Z</time>
      </trkpt>
      <trkpt lat="44.77329" lon="4.22738">
        <ele>1261.87</ele>
        <time>2015-10-10T12:31:49Z</time>
      </trkpt>
      <trkpt lat="44.77341" lon="4.22757">
        <ele>1261.39</ele>
        <time>2015-10-10T12:32:07Z</time>
      </trkpt>
      <trkpt lat="44.7735" lon="4.22769">
        <ele>1260.43</ele>
        <time>2015-10-10T12:32:24Z</time>
      </trkpt>
      <trkpt lat="44.77352" lon="4.22773">
        <ele>1259.94</ele>
        <time>2015-10-10T12:32:44Z</time>
      </trkpt>
      <trkpt lat="44.77353" lon="4.22774">
        <ele>1259.94</ele>
        <time>2015-10-10T12:33:08Z</time>
      </trkpt>
      <trkpt lat="44.77356" lon="4.22773">
        <ele>1259.46</ele>
        <time>2015-10-10T12:33:37Z</time>
      </trkpt>
      <trkpt lat="44.77358" lon="4.2278">
        <ele>1259.46</ele>
        <time>2015-10-10T12:33:54Z</time>
      </trkpt>
      <trkpt lat="44.77367" lon="4.22793">
        <ele>1258.98</ele>
        <time>2015-10-10T12:34:11Z</time>
      </trkpt>
      <trkpt lat="44.77375" lon="4.22804">
        <ele>1258.5</ele>
        <time>2015-10-10T12:34:31Z</time>
      </trkpt>
      <trkpt lat="44.77382" lon="4.22808">
        <ele>1258.02</ele>
        <time>2015-10-10T12:34:49Z</time>
      </trkpt>
      <trkpt lat="44.77396" lon="4.22818">
        <ele>1258.02</ele>
        <time>2015-10-10T12:35:06Z</time>
      </trkpt>
      <trkpt lat="44.77411" lon="4.22827">
        <ele>1258.5</ele>
        <time>2015-10-10T12:35:24Z</time>
      </trkpt>
      <trkpt lat="44.77428" lon="4.22834">
        <ele>1258.5</ele>
        <time>2015-10-10T12:35:43Z</time>
      </trkpt>
      <trkpt lat="44.77444" lon="4.22842">
        <ele>1258.5</ele>
        <time>2015-10-10T12:36:01Z</time>
      </trkpt>
      <trkpt lat="44.77457" lon="4.22846">
        <ele>1260.43</ele>
        <time>2015-10-10T12:36:18Z</time>
      </trkpt>
      <trkpt lat="44.77471" lon="4.22846">
        <ele>1261.87</ele>
        <time>2015-10-10T12:36:33Z</time>
      </trkpt>
      <trkpt lat="44.77486" lon="4.22848">
        <ele>1263.79</ele>
        <time>2015-10-10T12:36:51Z</time>
      </trkpt>
      <trkpt lat="44.77499" lon="4.22845">
        <ele>1266.19</ele>
        <time>2015-10-10T12:37:10Z</time>
      </trkpt>
      <trkpt lat="44.77511" lon="4.22837">
        <ele>1267.64</ele>
        <time>2015-10-10T12:37:26Z</time>
      </trkpt>
      <trkpt lat="44.77523" lon="4.2283">
        <ele>1270.04</ele>
        <time>2015-10-10T12:37:44Z</time>
      </trkpt>
      <trkpt lat="44.77533" lon="4.22829">
        <ele>1271.48</ele>
        <time>2015-10-10T12:37:59Z</time>
      </trkpt>
      <trkpt lat="44.77543" lon="4.2283">
        <ele>1273.4</ele>
        <time>2015-10-10T12:38:15Z</time>
      </trkpt>
      <trkpt lat="44.77553" lon="4.22832">
        <ele>1275.81</ele>
        <time>2015-10-10T12:38:31Z</time>
      </trkpt>
      <trkpt lat="44.77565" lon="4.22836">
        <ele>1278.21</ele>
        <time>2015-10-10T12:38:47Z</time>
      </trkpt>
      <trkpt lat="44.77568" lon="4.22838">
        <ele>1278.69</ele>
        <time>2015-10-10T12:38:52Z</time>
      </trkpt>
      <trkpt lat="44.77583" lon="4.22845">
        <ele>1281.09</ele>
        <time>2015-10-10T12:39:11Z</time>
      </trkpt>
      <trkpt lat="44.77593" lon="4.22853">
        <ele>1283.5</ele>
        <time>2015-10-10T12:39:27Z</time>
      </trkpt>
      <trkpt lat="44.77604" lon="4.22862">
        <ele>1284.46</ele>
        <time>2015-10-10T12:39:43Z</time>
      </trkpt>
      <trkpt lat="44.77615" lon="4.22874">
        <ele>1285.9</ele>
        <time>2015-10-10T12:39:58Z</time>
      </trkpt>
      <trkpt lat="44.77625" lon="4.22887">
        <ele>1287.34</ele>
        <time>2015-10-10T12:40:13Z</time>
      </trkpt>
      <trkpt lat="44.77638" lon="4.22901">
        <ele>1287.82</ele>
        <time>2015-10-10T12:40:30Z</time>
      </trkpt>
      <trkpt lat="44.77644" lon="4.22912">
        <ele>1287.82</ele>
        <time>2015-10-10T12:40:45Z</time>
      </trkpt>
      <trkpt lat="44.77644" lon="4.22911">
        <ele>1287.82</ele>
        <time>2015-10-10T12:41:16Z</time>
      </trkpt>
      <trkpt lat="44.77648" lon="4.22908">
        <ele>1287.82</ele>
        <time>2015-10-10T12:41:36Z</time>
      </trkpt>
      <trkpt lat="44.77647" lon="4.22908">
        <ele>1286.38</ele>
        <time>2015-10-10T12:41:41Z</time>
      </trkpt>
      <trkpt lat="44.77651" lon="4.22907">
        <ele>1287.82</ele>
        <time>2015-10-10T12:42:11Z</time>
      </trkpt>
      <trkpt lat="44.7765" lon="4.22906">
        <ele>1287.82</ele>
        <time>2015-10-10T12:42:12Z</time>
      </trkpt>
      <trkpt lat="44.77648" lon="4.22904">
        <ele>1286.86</ele>
        <time>2015-10-10T12:42:18Z</time>
      </trkpt>
      <trkpt lat="44.77648" lon="4.22902">
        <ele>1287.82</ele>
        <time>2015-10-10T12:42:26Z</time>
      </trkpt>
      <trkpt lat="44.77647" lon="4.22909">
        <ele>1287.82</ele>
        <time>2015-10-10T12:42:43Z</time>
      </trkpt>
      <trkpt lat="44.77645" lon="4.22915">
        <ele>1286.86</ele>
        <time>2015-10-10T12:43:09Z</time>
      </trkpt>
      <trkpt lat="44.77643" lon="4.22916">
        <ele>1286.86</ele>
        <time>2015-10-10T12:43:26Z</time>
      </trkpt>
      <trkpt lat="44.77642" lon="4.22916">
        <ele>1286.86</ele>
        <time>2015-10-10T12:43:55Z</time>
      </trkpt>
      <trkpt lat="44.77644" lon="4.22915">
        <ele>1286.38</ele>
        <time>2015-10-10T12:44:14Z</time>
      </trkpt>
      <trkpt lat="44.77644" lon="4.22918">
        <ele>1286.38</ele>
        <time>2015-10-10T12:44:32Z</time>
      </trkpt>
      <trkpt lat="44.7765" lon="4.22925">
        <ele>1286.38</ele>
        <time>2015-10-10T12:44:48Z</time>
      </trkpt>
      <trkpt lat="44.77659" lon="4.22941">
        <ele>1286.38</ele>
        <time>2015-10-10T12:45:05Z</time>
      </trkpt>
      <trkpt lat="44.77667" lon="4.22958">
        <ele>1285.9</ele>
        <time>2015-10-10T12:45:22Z</time>
      </trkpt>
      <trkpt lat="44.77676" lon="4.22978">
        <ele>1285.42</ele>
        <time>2015-10-10T12:45:41Z</time>
      </trkpt>
      <trkpt lat="44.77685" lon="4.22996">
        <ele>1283.02</ele>
        <time>2015-10-10T12:46:00Z</time>
      </trkpt>
      <trkpt lat="44.77694" lon="4.23012">
        <ele>1281.09</ele>
        <time>2015-10-10T12:46:17Z</time>
      </trkpt>
      <trkpt lat="44.77704" lon="4.23024">
        <ele>1280.13</ele>
        <time>2015-10-10T12:46:34Z</time>
      </trkpt>
      <trkpt lat="44.77714" lon="4.23028">
        <ele>1278.69</ele>
        <time>2015-10-10T12:46:50Z</time>
      </trkpt>
      <trkpt lat="44.77728" lon="4.23034">
        <ele>1276.77</ele>
        <time>2015-10-10T12:47:10Z</time>
      </trkpt>
      <trkpt lat="44.77743" lon="4.23046">
        <ele>1275.81</ele>
        <time>2015-10-10T12:47:30Z</time>
      </trkpt>
      <trkpt lat="44.77756" lon="4.23054">
        <ele>1275.33</ele>
        <time>2015-10-10T12:47:46Z</time>
      </trkpt>
      <trkpt lat="44.77768" lon="4.23063">
        <ele>1274.85</ele>
        <time>2015-10-10T12:48:02Z</time>
      </trkpt>
      <trkpt lat="44.77779" lon="4.23069">
        <ele>1274.36</ele>
        <time>2015-10-10T12:48:18Z</time>
      </trkpt>
      <trkpt lat="44.778" lon="4.23077">
        <ele>1274.36</ele>
        <time>2015-10-10T12:48:34Z</time>
      </trkpt>
      <trkpt lat="44.77812" lon="4.23082">
        <ele>1274.36</ele>
        <time>2015-10-10T12:48:48Z</time>
      </trkpt>
      <trkpt lat="44.77818" lon="4.23079">
        <ele>1274.36</ele>
        <time>2015-10-10T12:49:05Z</time>
      </trkpt>
      <trkpt lat="44.77818" lon="4.23079">
        <ele>1274.36</ele>
        <time>2015-10-10T12:49:25Z</time>
      </trkpt>
      <trkpt lat="44.77824" lon="4.23083">
        <ele>1274.36</ele>
        <time>2015-10-10T12:49:46Z</time>
      </trkpt>
      <trkpt lat="44.77839" lon="4.23088">
        <ele>1274.36</ele>
        <time>2015-10-10T12:50:05Z</time>
      </trkpt>
      <trkpt lat="44.77858" lon="4.23079">
        <ele>1274.36</ele>
        <time>2015-10-10T12:50:22Z</time>
      </trkpt>
      <trkpt lat="44.77871" lon="4.23071">
        <ele>1274.36</ele>
        <time>2015-10-10T12:50:39Z</time>
      </trkpt>
      <trkpt lat="44.77885" lon="4.23068">
        <ele>1274.36</ele>
        <time>2015-10-10T12:50:55Z</time>
      </trkpt>
      <trkpt lat="44.77899" lon="4.23069">
        <ele>1275.81</ele>
        <time>2015-10-10T12:51:10Z</time>
      </trkpt>
      <trkpt lat="44.77911" lon="4.23066">
        <ele>1275.81</ele>
        <time>2015-10-10T12:51:25Z</time>
      </trkpt>
      <trkpt lat="44.77921" lon="4.23065">
        <ele>1276.29</ele>
        <time>2015-10-10T12:51:39Z</time>
      </trkpt>
      <trkpt lat="44.77937" lon="4.23064">
        <ele>1276.77</ele>
        <time>2015-10-10T12:51:57Z</time>
      </trkpt>
      <trkpt lat="44.77948" lon="4.23054">
        <ele>1276.77</ele>
        <time>2015-10-10T12:52:12Z</time>
      </trkpt>
      <trkpt lat="44.77959" lon="4.23043">
        <ele>1276.77</ele>
        <time>2015-10-10T12:52:28Z</time>
      </trkpt>
      <trkpt lat="44.77971" lon="4.23035">
        <ele>1276.77</ele>
        <time>2015-10-10T12:52:48Z</time>
      </trkpt>
      <trkpt lat="44.77988" lon="4.23025">
        <ele>1276.77</ele>
        <time>2015-10-10T12:53:09Z</time>
      </trkpt>
      <trkpt lat="44.78012" lon="4.23014">
        <ele>1276.77</ele>
        <time>2015-10-10T12:53:31Z</time>
      </trkpt>
      <trkpt lat="44.78035" lon="4.23006">
        <ele>1276.77</ele>
        <time>2015-10-10T12:53:49Z</time>
      </trkpt>
      <trkpt lat="44.78054" lon="4.23005">
        <ele>1276.29</ele>
        <time>2015-10-10T12:54:09Z</time>
      </trkpt>
      <trkpt lat="44.78075" lon="4.23001">
        <ele>1276.77</ele>
        <time>2015-10-10T12:54:30Z</time>
      </trkpt>
      <trkpt lat="44.7809" lon="4.22996">
        <ele>1277.25</ele>
        <time>2015-10-10T12:54:49Z</time>
      </trkpt>
      <trkpt lat="44.78109" lon="4.22985">
        <ele>1276.77</ele>
        <time>2015-10-10T12:55:06Z</time>
      </trkpt>
      <trkpt lat="44.78123" lon="4.22983">
        <ele>1276.77</ele>
        <time>2015-10-10T12:55:22Z</time>
      </trkpt>
      <trkpt lat="44.78139" lon="4.22987">
        <ele>1277.25</ele>
        <time>2015-10-10T12:55:40Z</time>
      </trkpt>
      <trkpt lat="44.78155" lon="4.22992">
        <ele>1277.25</ele>
        <time>2015-10-10T12:55:59Z</time>
      </trkpt>
      <trkpt lat="44.7817" lon="4.22997">
        <ele>1275.81</ele>
        <time>2015-10-10T12:56:16Z</time>
      </trkpt>
      <trkpt lat="44.78187" lon="4.22998">
        <ele>1274.36</ele>
        <time>2015-10-10T12:56:34Z</time>
      </trkpt>
      <trkpt lat="44.78202" lon="4.22991">
        <ele>1273.88</ele>
        <time>2015-10-10T12:56:50Z</time>
      </trkpt>
      <trkpt lat="44.78208" lon="4.2299">
        <ele>1273.4</ele>
        <time>2015-10-10T12:57:06Z</time>
      </trkpt>
      <trkpt lat="44.78209" lon="4.2299">
        <ele>1273.4</ele>
        <time>2015-10-10T12:57:27Z</time>
      </trkpt>
      <trkpt lat="44.78209" lon="4.22991">
        <ele>1274.85</ele>
        <time>2015-10-10T12:57:37Z</time>
      </trkpt>
      <trkpt lat="44.78208" lon="4.2299">
        <ele>1273.88</ele>
        <time>2015-10-10T12:57:55Z</time>
      </trkpt>
      <trkpt lat="44.78205" lon="4.22993">
        <ele>1273.88</ele>
        <time>2015-10-10T12:58:33Z</time>
      </trkpt>
      <trkpt lat="44.78206" lon="4.22992">
        <ele>1273.88</ele>
        <time>2015-10-10T12:59:07Z</time>
      </trkpt>
      <trkpt lat="44.78207" lon="4.22989">
        <ele>1273.88</ele>
        <time>2015-10-10T12:59:40Z</time>
      </trkpt>
      <trkpt lat="44.78208" lon="4.22994">
        <ele>1273.88</ele>
        <time>2015-10-10T13:00:09Z</time>
      </trkpt>
      <trkpt lat="44.78216" lon="4.2299">
        <ele>1274.36</ele>
        <time>2015-10-10T13:00:36Z</time>
      </trkpt>
      <trkpt lat="44.78231" lon="4.22985">
        <ele>1272.44</ele>
        <time>2015-10-10T13:00:58Z</time>
      </trkpt>
      <trkpt lat="44.78248" lon="4.22988">
        <ele>1271</ele>
        <time>2015-10-10T13:01:23Z</time>
      </trkpt>
      <trkpt lat="44.78272" lon="4.22983">
        <ele>1270.52</ele>
        <time>2015-10-10T13:01:44Z</time>
      </trkpt>
      <trkpt lat="44.78287" lon="4.22979">
        <ele>1269.56</ele>
        <time>2015-10-10T13:02:08Z</time>
      </trkpt>
      <trkpt lat="44.783" lon="4.22976">
        <ele>1269.08</ele>
        <time>2015-10-10T13:02:32Z</time>
      </trkpt>
      <trkpt lat="44.78323" lon="4.22971">
        <ele>1268.12</ele>
        <time>2015-10-10T13:02:56Z</time>
      </trkpt>
      <trkpt lat="44.78338" lon="4.22966">
        <ele>1267.64</ele>
        <time>2015-10-10T13:03:19Z</time>
      </trkpt>
      <trkpt lat="44.78356" lon="4.22958">
        <ele>1266.19</ele>
        <time>2015-10-10T13:03:40Z</time>
      </trkpt>
      <trkpt lat="44.78373" lon="4.22955">
        <ele>1265.23</ele>
        <time>2015-10-10T13:04:04Z</time>
      </trkpt>
      <trkpt lat="44.78389" lon="4.22957">
        <ele>1264.75</ele>
        <time>2015-10-10T13:04:25Z</time>
      </trkpt>
      <trkpt lat="44.78405" lon="4.22952">
        <ele>1264.27</ele>
        <time>2015-10-10T13:04:47Z</time>
      </trkpt>
      <trkpt lat="44.78419" lon="4.22952">
        <ele>1263.79</ele>
        <time>2015-10-10T13:05:09Z</time>
      </trkpt>
      <trkpt lat="44.78439" lon="4.22954">
        <ele>1262.83</ele>
        <time>2015-10-10T13:05:31Z</time>
      </trkpt>
      <trkpt lat="44.78453" lon="4.2295">
        <ele>1261.87</ele>
        <time>2015-10-10T13:05:51Z</time>
      </trkpt>
      <trkpt lat="44.78463" lon="4.22951">
        <ele>1259.94</ele>
        <time>2015-10-10T13:06:13Z</time>
      </trkpt>
      <trkpt lat="44.78485" lon="4.22956">
        <ele>1258.5</ele>
        <time>2015-10-10T13:06:34Z</time>
      </trkpt>
      <trkpt lat="44.785" lon="4.22965">
        <ele>1257.06</ele>
        <time>2015-10-10T13:06:55Z</time>
      </trkpt>
      <trkpt lat="44.78511" lon="4.22967">
        <ele>1255.62</ele>
        <time>2015-10-10T13:07:14Z</time>
      </trkpt>
      <trkpt lat="44.78525" lon="4.22968">
        <ele>1254.66</ele>
        <time>2015-10-10T13:07:30Z</time>
      </trkpt>
      <trkpt lat="44.7853" lon="4.22969">
        <ele>1253.22</ele>
        <time>2015-10-10T13:07:47Z</time>
      </trkpt>
      <trkpt lat="44.78539" lon="4.22968">
        <ele>1252.74</ele>
        <time>2015-10-10T13:08:06Z</time>
      </trkpt>
      <trkpt lat="44.78558" lon="4.22965">
        <ele>1251.77</ele>
        <time>2015-10-10T13:08:27Z</time>
      </trkpt>
      <trkpt lat="44.7857" lon="4.22965">
        <ele>1250.81</ele>
        <time>2015-10-10T13:08:45Z</time>
      </trkpt>
      <trkpt lat="44.7858" lon="4.22969">
        <ele>1249.85</ele>
        <time>2015-10-10T13:09:03Z</time>
      </trkpt>
      <trkpt lat="44.78594" lon="4.22969">
        <ele>1249.37</ele>
        <time>2015-10-10T13:09:22Z</time>
      </trkpt>
      <trkpt lat="44.78611" lon="4.22965">
        <ele>1248.89</ele>
        <time>2015-10-10T13:09:42Z</time>
      </trkpt>
      <trkpt lat="44.78623" lon="4.22963">
        <ele>1248.41</ele>
        <time>2015-10-10T13:09:59Z</time>
      </trkpt>
      <trkpt lat="44.78638" lon="4.22955">
        <ele>1246.97</ele>
        <time>2015-10-10T13:10:19Z</time>
      </trkpt>
      <trkpt lat="44.78647" lon="4.22954">
        <ele>1246.49</ele>
        <time>2015-10-10T13:10:29Z</time>
      </trkpt>
      <trkpt lat="44.78656" lon="4.22955">
        <ele>1246.49</ele>
        <time>2015-10-10T13:10:44Z</time>
      </trkpt>
      <trkpt lat="44.78662" lon="4.22958">
        <ele>1245.53</ele>
        <time>2015-10-10T13:10:52Z</time>
      </trkpt>
      <trkpt lat="44.78676" lon="4.22964">
        <ele>1245.04</ele>
        <time>2015-10-10T13:11:07Z</time>
      </trkpt>
      <trkpt lat="44.78691" lon="4.22974">
        <ele>1245.04</ele>
        <time>2015-10-10T13:11:24Z</time>
      </trkpt>
      <trkpt lat="44.78707" lon="4.22983">
        <ele>1245.04</ele>
        <time>2015-10-10T13:11:42Z</time>
      </trkpt>
      <trkpt lat="44.78721" lon="4.22991">
        <ele>1244.56</ele>
        <time>2015-10-10T13:11:58Z</time>
      </trkpt>
      <trkpt lat="44.78732" lon="4.22994">
        <ele>1246.01</ele>
        <time>2015-10-10T13:12:10Z</time>
      </trkpt>
      <trkpt lat="44.78747" lon="4.22993">
        <ele>1246.01</ele>
        <time>2015-10-10T13:12:28Z</time>
      </trkpt>
      <trkpt lat="44.7876" lon="4.22994">
        <ele>1246.01</ele>
        <time>2015-10-10T13:12:44Z</time>
      </trkpt>
      <trkpt lat="44.78772" lon="4.22987">
        <ele>1244.08</ele>
        <time>2015-10-10T13:13:02Z</time>
      </trkpt>
      <trkpt lat="44.78779" lon="4.22983">
        <ele>1243.12</ele>
        <time>2015-10-10T13:13:20Z</time>
      </trkpt>
      <trkpt lat="44.78786" lon="4.22976">
        <ele>1241.68</ele>
        <time>2015-10-10T13:13:35Z</time>
      </trkpt>
      <trkpt lat="44.78794" lon="4.22968">
        <ele>1239.76</ele>
        <time>2015-10-10T13:13:51Z</time>
      </trkpt>
      <trkpt lat="44.78799" lon="4.22965">
        <ele>1238.8</ele>
        <time>2015-10-10T13:14:08Z</time>
      </trkpt>
      <trkpt lat="44.78805" lon="4.22967">
        <ele>1236.39</ele>
        <time>2015-10-10T13:14:26Z</time>
      </trkpt>
      <trkpt lat="44.78813" lon="4.22963">
        <ele>1234.47</ele>
        <time>2015-10-10T13:14:45Z</time>
      </trkpt>
      <trkpt lat="44.7882" lon="4.22956">
        <ele>1233.03</ele>
        <time>2015-10-10T13:15:03Z</time>
      </trkpt>
      <trkpt lat="44.78826" lon="4.2295">
        <ele>1232.07</ele>
        <time>2015-10-10T13:15:18Z</time>
      </trkpt>
      <trkpt lat="44.78833" lon="4.22944">
        <ele>1230.14</ele>
        <time>2015-10-10T13:15:35Z</time>
      </trkpt>
      <trkpt lat="44.78838" lon="4.22942">
        <ele>1228.7</ele>
        <time>2015-10-10T13:15:49Z</time>
      </trkpt>
      <trkpt lat="44.78845" lon="4.22939">
        <ele>1227.74</ele>
        <time>2015-10-10T13:16:08Z</time>
      </trkpt>
      <trkpt lat="44.78852" lon="4.22928">
        <ele>1227.26</ele>
        <time>2015-10-10T13:16:25Z</time>
      </trkpt>
      <trkpt lat="44.78854" lon="4.22925">
        <ele>1227.26</ele>
        <time>2015-10-10T13:16:43Z</time>
      </trkpt>
      <trkpt lat="44.78862" lon="4.22919">
        <ele>1226.3</ele>
        <time>2015-10-10T13:17:06Z</time>
      </trkpt>
      <trkpt lat="44.78871" lon="4.22907">
        <ele>1225.34</ele>
        <time>2015-10-10T13:17:25Z</time>
      </trkpt>
      <trkpt lat="44.78883" lon="4.22896">
        <ele>1224.38</ele>
        <time>2015-10-10T13:17:43Z</time>
      </trkpt>
      <trkpt lat="44.78896" lon="4.22885">
        <ele>1223.42</ele>
        <time>2015-10-10T13:18:01Z</time>
      </trkpt>
      <trkpt lat="44.789" lon="4.22883">
        <ele>1222.93</ele>
        <time>2015-10-10T13:18:19Z</time>
      </trkpt>
      <trkpt lat="44.78915" lon="4.22875">
        <ele>1221.97</ele>
        <time>2015-10-10T13:18:39Z</time>
      </trkpt>
      <trkpt lat="44.78931" lon="4.22868">
        <ele>1220.53</ele>
        <time>2015-10-10T13:18:57Z</time>
      </trkpt>
      <trkpt lat="44.78945" lon="4.22862">
        <ele>1220.53</ele>
        <time>2015-10-10T13:19:13Z</time>
      </trkpt>
      <trkpt lat="44.78963" lon="4.22852">
        <ele>1220.05</ele>
        <time>2015-10-10T13:19:32Z</time>
      </trkpt>
      <trkpt lat="44.78975" lon="4.2284">
        <ele>1219.57</ele>
        <time>2015-10-10T13:19:49Z</time>
      </trkpt>
      <trkpt lat="44.78984" lon="4.22823">
        <ele>1219.57</ele>
        <time>2015-10-10T13:20:05Z</time>
      </trkpt>
      <trkpt lat="44.78992" lon="4.22802">
        <ele>1221.01</ele>
        <time>2015-10-10T13:20:22Z</time>
      </trkpt>
      <trkpt lat="44.78993" lon="4.22793">
        <ele>1221.01</ele>
        <time>2015-10-10T13:20:29Z</time>
      </trkpt>
      <trkpt lat="44.78993" lon="4.2277">
        <ele>1221.97</ele>
        <time>2015-10-10T13:20:46Z</time>
      </trkpt>
      <trkpt lat="44.78993" lon="4.22769">
        <ele>1221.97</ele>
        <time>2015-10-10T13:20:47Z</time>
      </trkpt>
      <trkpt lat="44.79" lon="4.22745">
        <ele>1222.93</ele>
        <time>2015-10-10T13:21:07Z</time>
      </trkpt>
      <trkpt lat="44.79006" lon="4.22722">
        <ele>1223.42</ele>
        <time>2015-10-10T13:21:25Z</time>
      </trkpt>
      <trkpt lat="44.79007" lon="4.22702">
        <ele>1223.9</ele>
        <time>2015-10-10T13:21:41Z</time>
      </trkpt>
      <trkpt lat="44.79005" lon="4.22681">
        <ele>1224.86</ele>
        <time>2015-10-10T13:21:58Z</time>
      </trkpt>
      <trkpt lat="44.79003" lon="4.22656">
        <ele>1225.82</ele>
        <time>2015-10-10T13:22:15Z</time>
      </trkpt>
      <trkpt lat="44.78997" lon="4.22628">
        <ele>1226.78</ele>
        <time>2015-10-10T13:22:35Z</time>
      </trkpt>
      <trkpt lat="44.78994" lon="4.22611">
        <ele>1227.74</ele>
        <time>2015-10-10T13:22:50Z</time>
      </trkpt>
      <trkpt lat="44.78991" lon="4.2259">
        <ele>1228.22</ele>
        <time>2015-10-10T13:23:06Z</time>
      </trkpt>
      <trkpt lat="44.78992" lon="4.2257">
        <ele>1228.7</ele>
        <time>2015-10-10T13:23:22Z</time>
      </trkpt>
      <trkpt lat="44.78996" lon="4.22557">
        <ele>1229.66</ele>
        <time>2015-10-10T13:23:38Z</time>
      </trkpt>
      <trkpt lat="44.79002" lon="4.22535">
        <ele>1230.14</ele>
        <time>2015-10-10T13:23:55Z</time>
      </trkpt>
      <trkpt lat="44.79004" lon="4.22523">
        <ele>1230.62</ele>
        <time>2015-10-10T13:24:11Z</time>
      </trkpt>
      <trkpt lat="44.79006" lon="4.22519">
        <ele>1230.62</ele>
        <time>2015-10-10T13:24:36Z</time>
      </trkpt>
      <trkpt lat="44.79014" lon="4.22512">
        <ele>1230.62</ele>
        <time>2015-10-10T13:24:54Z</time>
      </trkpt>
      <trkpt lat="44.79017" lon="4.22511">
        <ele>1231.11</ele>
        <time>2015-10-10T13:25:09Z</time>
      </trkpt>
      <trkpt lat="44.79026" lon="4.22511">
        <ele>1231.59</ele>
        <time>2015-10-10T13:25:22Z</time>
      </trkpt>
      <trkpt lat="44.79038" lon="4.2251">
        <ele>1232.07</ele>
        <time>2015-10-10T13:25:37Z</time>
      </trkpt>
      <trkpt lat="44.79039" lon="4.22509">
        <ele>1232.55</ele>
        <time>2015-10-10T13:25:53Z</time>
      </trkpt>
      <trkpt lat="44.79039" lon="4.22507">
        <ele>1231.11</ele>
        <time>2015-10-10T13:26:12Z</time>
      </trkpt>
      <trkpt lat="44.79039" lon="4.22507">
        <ele>1233.03</ele>
        <time>2015-10-10T13:26:14Z</time>
      </trkpt>
      <trkpt lat="44.79038" lon="4.22509">
        <ele>1233.03</ele>
        <time>2015-10-10T13:26:39Z</time>
      </trkpt>
      <trkpt lat="44.79038" lon="4.2251">
        <ele>1231.59</ele>
        <time>2015-10-10T13:26:52Z</time>
      </trkpt>
      <trkpt lat="44.79038" lon="4.2251">
        <ele>1233.51</ele>
        <time>2015-10-10T13:26:54Z</time>
      </trkpt>
    </trkseg>
  </trk>
</gpx>